<?xml version="1.0" encoding="UTF-8" standalone="no" ?>
<gpx xmlns="http://www.topografix.com/GPX/1/1" xmlns:xsi="http://www.w3.org/2001/XMLSchema-instance" xsi:schemaLocation="http://www.topografix.com/GPX/1/1 http://www.topografix.com/GPX/1/1/gpx.xsd" version="1.1" creator="VisuGPX - https://www.visugpx.com">
  <metadata>
    <name>Toulouse Garonne</name>
  </metadata>
  <trk>
    <name><![CDATA[Toulouse Garonne_1]]></name>
    <trkseg>
      <trkpt lat="42.87747" lon="2.09547">
        <ele>975.4</ele>
      </trkpt>
    </trkseg>
  </trk>
  <trk>
    <name><![CDATA[13191892-Boucle Coulée verte et Garonne ]]></name>
    <extensions>
      <line xmlns="http://www.topografix.com/GPX/gpx_style/0/2">
        <color>0000FF</color>
        <width>4</width>
          <extensions>
            <sens>1</sens>
          </extensions>
      </line>
    </extensions>
    <trkseg>
      <trkpt lat="43.55513" lon="1.33139">
        <ele>164</ele>
        <time>2022-06-02T17:21:14Z</time>
      </trkpt>
      <trkpt lat="43.55527" lon="1.33207">
        <ele>164</ele>
        <time>2022-06-02T17:21:26Z</time>
      </trkpt>
      <trkpt lat="43.55549" lon="1.3321">
        <ele>165</ele>
        <time>2022-06-02T17:21:31Z</time>
      </trkpt>
      <trkpt lat="43.55605" lon="1.33196">
        <ele>165</ele>
        <time>2022-06-02T17:21:44Z</time>
      </trkpt>
      <trkpt lat="43.55605" lon="1.33191">
        <ele>164</ele>
        <time>2022-06-02T17:21:45Z</time>
      </trkpt>
      <trkpt lat="43.55621" lon="1.33187">
        <ele>165</ele>
        <time>2022-06-02T17:21:49Z</time>
      </trkpt>
      <trkpt lat="43.55627" lon="1.33177">
        <ele>165</ele>
        <time>2022-06-02T17:21:51Z</time>
      </trkpt>
      <trkpt lat="43.55625" lon="1.33169">
        <ele>165</ele>
        <time>2022-06-02T17:21:53Z</time>
      </trkpt>
      <trkpt lat="43.55632" lon="1.33164">
        <ele>165</ele>
        <time>2022-06-02T17:21:55Z</time>
      </trkpt>
      <trkpt lat="43.55626" lon="1.33161">
        <ele>164</ele>
        <time>2022-06-02T17:21:56Z</time>
      </trkpt>
      <trkpt lat="43.55644" lon="1.33165">
        <ele>165</ele>
        <time>2022-06-02T17:22:00Z</time>
      </trkpt>
      <trkpt lat="43.5565" lon="1.33171">
        <ele>165</ele>
        <time>2022-06-02T17:22:02Z</time>
      </trkpt>
      <trkpt lat="43.55657" lon="1.33189">
        <ele>165</ele>
        <time>2022-06-02T17:22:05Z</time>
      </trkpt>
      <trkpt lat="43.55652" lon="1.33194">
        <ele>165</ele>
        <time>2022-06-02T17:22:07Z</time>
      </trkpt>
      <trkpt lat="43.55653" lon="1.33205">
        <ele>165</ele>
        <time>2022-06-02T17:22:09Z</time>
      </trkpt>
      <trkpt lat="43.55659" lon="1.33201">
        <ele>165</ele>
        <time>2022-06-02T17:22:10Z</time>
      </trkpt>
      <trkpt lat="43.55666" lon="1.33204">
        <ele>165</ele>
        <time>2022-06-02T17:22:12Z</time>
      </trkpt>
      <trkpt lat="43.55685" lon="1.332">
        <ele>165</ele>
        <time>2022-06-02T17:22:17Z</time>
      </trkpt>
      <trkpt lat="43.557" lon="1.33191">
        <ele>164</ele>
        <time>2022-06-02T17:22:20Z</time>
      </trkpt>
      <trkpt lat="43.55707" lon="1.33195">
        <ele>164</ele>
        <time>2022-06-02T17:22:22Z</time>
      </trkpt>
      <trkpt lat="43.55705" lon="1.33193">
        <ele>164</ele>
        <time>2022-06-02T17:22:23Z</time>
      </trkpt>
      <trkpt lat="43.55714" lon="1.33191">
        <ele>164</ele>
        <time>2022-06-02T17:22:25Z</time>
      </trkpt>
      <trkpt lat="43.55722" lon="1.33196">
        <ele>164</ele>
        <time>2022-06-02T17:22:27Z</time>
      </trkpt>
      <trkpt lat="43.55726" lon="1.33203">
        <ele>164</ele>
        <time>2022-06-02T17:22:28Z</time>
      </trkpt>
      <trkpt lat="43.55706" lon="1.33188">
        <ele>164</ele>
        <time>2022-06-02T17:22:34Z</time>
      </trkpt>
      <trkpt lat="43.55698" lon="1.33203">
        <ele>164</ele>
        <time>2022-06-02T17:22:37Z</time>
      </trkpt>
      <trkpt lat="43.55687" lon="1.33201">
        <ele>165</ele>
        <time>2022-06-02T17:22:39Z</time>
      </trkpt>
      <trkpt lat="43.55682" lon="1.33205">
        <ele>165</ele>
        <time>2022-06-02T17:22:41Z</time>
      </trkpt>
      <trkpt lat="43.55671" lon="1.33224">
        <ele>165</ele>
        <time>2022-06-02T17:22:45Z</time>
      </trkpt>
      <trkpt lat="43.55664" lon="1.33223">
        <ele>165</ele>
        <time>2022-06-02T17:22:47Z</time>
      </trkpt>
      <trkpt lat="43.55633" lon="1.33236">
        <ele>165</ele>
        <time>2022-06-02T17:22:54Z</time>
      </trkpt>
      <trkpt lat="43.55613" lon="1.33251">
        <ele>165</ele>
        <time>2022-06-02T17:22:59Z</time>
      </trkpt>
      <trkpt lat="43.55603" lon="1.33263">
        <ele>165</ele>
        <time>2022-06-02T17:23:03Z</time>
      </trkpt>
      <trkpt lat="43.55602" lon="1.33292">
        <ele>165</ele>
        <time>2022-06-02T17:23:07Z</time>
      </trkpt>
      <trkpt lat="43.55607" lon="1.33304">
        <ele>165</ele>
        <time>2022-06-02T17:23:10Z</time>
      </trkpt>
      <trkpt lat="43.55634" lon="1.33336">
        <ele>165</ele>
        <time>2022-06-02T17:23:18Z</time>
      </trkpt>
      <trkpt lat="43.55712" lon="1.33414">
        <ele>164</ele>
        <time>2022-06-02T17:23:41Z</time>
      </trkpt>
      <trkpt lat="43.55767" lon="1.33443">
        <ele>164</ele>
        <time>2022-06-02T17:23:54Z</time>
      </trkpt>
      <trkpt lat="43.55825" lon="1.3346">
        <ele>164</ele>
        <time>2022-06-02T17:24:08Z</time>
      </trkpt>
      <trkpt lat="43.55871" lon="1.33491">
        <ele>165</ele>
        <time>2022-06-02T17:24:20Z</time>
      </trkpt>
      <trkpt lat="43.55959" lon="1.33586">
        <ele>165</ele>
        <time>2022-06-02T17:24:46Z</time>
      </trkpt>
      <trkpt lat="43.56033" lon="1.33647">
        <ele>164</ele>
        <time>2022-06-02T17:25:06Z</time>
      </trkpt>
      <trkpt lat="43.56107" lon="1.33723">
        <ele>164</ele>
        <time>2022-06-02T17:25:28Z</time>
      </trkpt>
      <trkpt lat="43.56231" lon="1.33855">
        <ele>163</ele>
        <time>2022-06-02T17:26:04Z</time>
      </trkpt>
      <trkpt lat="43.5628" lon="1.33913">
        <ele>162</ele>
        <time>2022-06-02T17:26:20Z</time>
      </trkpt>
      <trkpt lat="43.56298" lon="1.33927">
        <ele>162</ele>
        <time>2022-06-02T17:26:24Z</time>
      </trkpt>
      <trkpt lat="43.56322" lon="1.33919">
        <ele>162</ele>
        <time>2022-06-02T17:26:30Z</time>
      </trkpt>
      <trkpt lat="43.56333" lon="1.3393">
        <ele>162</ele>
        <time>2022-06-02T17:26:33Z</time>
      </trkpt>
      <trkpt lat="43.56343" lon="1.33925">
        <ele>162</ele>
        <time>2022-06-02T17:26:36Z</time>
      </trkpt>
      <trkpt lat="43.5636" lon="1.33902">
        <ele>161</ele>
        <time>2022-06-02T17:26:41Z</time>
      </trkpt>
      <trkpt lat="43.56441" lon="1.33824">
        <ele>160</ele>
        <time>2022-06-02T17:27:04Z</time>
      </trkpt>
      <trkpt lat="43.56476" lon="1.33785">
        <ele>162</ele>
        <time>2022-06-02T17:27:15Z</time>
      </trkpt>
      <trkpt lat="43.56553" lon="1.33718">
        <ele>164</ele>
        <time>2022-06-02T17:27:36Z</time>
      </trkpt>
      <trkpt lat="43.56596" lon="1.33675">
        <ele>164</ele>
        <time>2022-06-02T17:27:49Z</time>
      </trkpt>
      <trkpt lat="43.56707" lon="1.33592">
        <ele>162</ele>
        <time>2022-06-02T17:28:18Z</time>
      </trkpt>
      <trkpt lat="43.56718" lon="1.33603">
        <ele>162</ele>
        <time>2022-06-02T17:28:21Z</time>
      </trkpt>
      <trkpt lat="43.56728" lon="1.33599">
        <ele>162</ele>
        <time>2022-06-02T17:28:24Z</time>
      </trkpt>
      <trkpt lat="43.5673" lon="1.33577">
        <ele>162</ele>
        <time>2022-06-02T17:28:27Z</time>
      </trkpt>
      <trkpt lat="43.56739" lon="1.33568">
        <ele>162</ele>
        <time>2022-06-02T17:28:30Z</time>
      </trkpt>
      <trkpt lat="43.56855" lon="1.33484">
        <ele>162</ele>
        <time>2022-06-02T17:29:01Z</time>
      </trkpt>
      <trkpt lat="43.56868" lon="1.33469">
        <ele>162</ele>
        <time>2022-06-02T17:29:05Z</time>
      </trkpt>
      <trkpt lat="43.56919" lon="1.33433">
        <ele>161</ele>
        <time>2022-06-02T17:29:18Z</time>
      </trkpt>
      <trkpt lat="43.56945" lon="1.33409">
        <ele>161</ele>
        <time>2022-06-02T17:29:25Z</time>
      </trkpt>
      <trkpt lat="43.56954" lon="1.33412">
        <ele>161</ele>
        <time>2022-06-02T17:29:27Z</time>
      </trkpt>
      <trkpt lat="43.56975" lon="1.33449">
        <ele>163</ele>
        <time>2022-06-02T17:29:35Z</time>
      </trkpt>
      <trkpt lat="43.5698" lon="1.33446">
        <ele>163</ele>
        <time>2022-06-02T17:29:37Z</time>
      </trkpt>
      <trkpt lat="43.5698" lon="1.33425">
        <ele>162</ele>
        <time>2022-06-02T17:29:40Z</time>
      </trkpt>
      <trkpt lat="43.56998" lon="1.33392">
        <ele>163</ele>
        <time>2022-06-02T17:29:47Z</time>
      </trkpt>
      <trkpt lat="43.57042" lon="1.33357">
        <ele>162</ele>
        <time>2022-06-02T17:29:59Z</time>
      </trkpt>
      <trkpt lat="43.57087" lon="1.33328">
        <ele>162</ele>
        <time>2022-06-02T17:30:11Z</time>
      </trkpt>
      <trkpt lat="43.57121" lon="1.33295">
        <ele>162</ele>
        <time>2022-06-02T17:30:20Z</time>
      </trkpt>
      <trkpt lat="43.57148" lon="1.33278">
        <ele>161</ele>
        <time>2022-06-02T17:30:27Z</time>
      </trkpt>
      <trkpt lat="43.57181" lon="1.33244">
        <ele>160</ele>
        <time>2022-06-02T17:30:37Z</time>
      </trkpt>
      <trkpt lat="43.572" lon="1.33232">
        <ele>159</ele>
        <time>2022-06-02T17:30:42Z</time>
      </trkpt>
      <trkpt lat="43.57219" lon="1.33227">
        <ele>159</ele>
        <time>2022-06-02T17:30:46Z</time>
      </trkpt>
      <trkpt lat="43.57236" lon="1.33197">
        <ele>159</ele>
        <time>2022-06-02T17:30:53Z</time>
      </trkpt>
      <trkpt lat="43.57306" lon="1.33126">
        <ele>158</ele>
        <time>2022-06-02T17:31:13Z</time>
      </trkpt>
      <trkpt lat="43.57342" lon="1.33079">
        <ele>158</ele>
        <time>2022-06-02T17:31:25Z</time>
      </trkpt>
      <trkpt lat="43.57354" lon="1.33057">
        <ele>157</ele>
        <time>2022-06-02T17:31:29Z</time>
      </trkpt>
      <trkpt lat="43.57382" lon="1.33023">
        <ele>156</ele>
        <time>2022-06-02T17:31:38Z</time>
      </trkpt>
      <trkpt lat="43.57389" lon="1.33021">
        <ele>156</ele>
        <time>2022-06-02T17:31:40Z</time>
      </trkpt>
      <trkpt lat="43.57395" lon="1.33045">
        <ele>156</ele>
        <time>2022-06-02T17:31:44Z</time>
      </trkpt>
      <trkpt lat="43.57419" lon="1.3309">
        <ele>155</ele>
        <time>2022-06-02T17:31:53Z</time>
      </trkpt>
      <trkpt lat="43.57447" lon="1.33185">
        <ele>155</ele>
        <time>2022-06-02T17:32:11Z</time>
      </trkpt>
      <trkpt lat="43.57483" lon="1.33247">
        <ele>155</ele>
        <time>2022-06-02T17:32:24Z</time>
      </trkpt>
      <trkpt lat="43.57499" lon="1.33284">
        <ele>155</ele>
        <time>2022-06-02T17:32:31Z</time>
      </trkpt>
      <trkpt lat="43.57514" lon="1.33356">
        <ele>155</ele>
        <time>2022-06-02T17:32:44Z</time>
      </trkpt>
      <trkpt lat="43.57546" lon="1.33408">
        <ele>156</ele>
        <time>2022-06-02T17:32:56Z</time>
      </trkpt>
      <trkpt lat="43.57567" lon="1.33457">
        <ele>155</ele>
        <time>2022-06-02T17:33:05Z</time>
      </trkpt>
      <trkpt lat="43.57574" lon="1.33485">
        <ele>155</ele>
        <time>2022-06-02T17:33:10Z</time>
      </trkpt>
      <trkpt lat="43.57595" lon="1.33525">
        <ele>154</ele>
        <time>2022-06-02T17:33:19Z</time>
      </trkpt>
      <trkpt lat="43.57615" lon="1.33595">
        <ele>155</ele>
        <time>2022-06-02T17:33:31Z</time>
      </trkpt>
      <trkpt lat="43.57629" lon="1.33731">
        <ele>156</ele>
        <time>2022-06-02T17:33:55Z</time>
      </trkpt>
      <trkpt lat="43.57627" lon="1.338">
        <ele>156</ele>
        <time>2022-06-02T17:34:06Z</time>
      </trkpt>
      <trkpt lat="43.5762" lon="1.33824">
        <ele>156</ele>
        <time>2022-06-02T17:34:11Z</time>
      </trkpt>
      <trkpt lat="43.57613" lon="1.339">
        <ele>156</ele>
        <time>2022-06-02T17:34:24Z</time>
      </trkpt>
      <trkpt lat="43.57578" lon="1.33945">
        <ele>157</ele>
        <time>2022-06-02T17:34:35Z</time>
      </trkpt>
      <trkpt lat="43.57571" lon="1.33967">
        <ele>157</ele>
        <time>2022-06-02T17:34:39Z</time>
      </trkpt>
      <trkpt lat="43.57575" lon="1.33981">
        <ele>157</ele>
        <time>2022-06-02T17:34:41Z</time>
      </trkpt>
      <trkpt lat="43.57595" lon="1.33988">
        <ele>156</ele>
        <time>2022-06-02T17:34:46Z</time>
      </trkpt>
      <trkpt lat="43.57617" lon="1.34003">
        <ele>156</ele>
        <time>2022-06-02T17:34:52Z</time>
      </trkpt>
      <trkpt lat="43.57626" lon="1.34017">
        <ele>156</ele>
        <time>2022-06-02T17:34:55Z</time>
      </trkpt>
      <trkpt lat="43.57626" lon="1.34028">
        <ele>156</ele>
        <time>2022-06-02T17:34:57Z</time>
      </trkpt>
      <trkpt lat="43.57611" lon="1.34069">
        <ele>157</ele>
        <time>2022-06-02T17:35:05Z</time>
      </trkpt>
      <trkpt lat="43.57605" lon="1.34136">
        <ele>158</ele>
        <time>2022-06-02T17:35:16Z</time>
      </trkpt>
      <trkpt lat="43.57607" lon="1.34153">
        <ele>158</ele>
        <time>2022-06-02T17:35:19Z</time>
      </trkpt>
      <trkpt lat="43.57647" lon="1.34218">
        <ele>158</ele>
        <time>2022-06-02T17:35:34Z</time>
      </trkpt>
      <trkpt lat="43.57676" lon="1.34256">
        <ele>158</ele>
        <time>2022-06-02T17:35:43Z</time>
      </trkpt>
      <trkpt lat="43.57739" lon="1.3428">
        <ele>156</ele>
        <time>2022-06-02T17:35:58Z</time>
      </trkpt>
      <trkpt lat="43.57764" lon="1.34285">
        <ele>155</ele>
        <time>2022-06-02T17:36:04Z</time>
      </trkpt>
      <trkpt lat="43.57792" lon="1.34302">
        <ele>155</ele>
        <time>2022-06-02T17:36:11Z</time>
      </trkpt>
      <trkpt lat="43.5779" lon="1.34318">
        <ele>155</ele>
        <time>2022-06-02T17:36:14Z</time>
      </trkpt>
      <trkpt lat="43.57783" lon="1.34333">
        <ele>156</ele>
        <time>2022-06-02T17:36:17Z</time>
      </trkpt>
      <trkpt lat="43.57769" lon="1.34345">
        <ele>156</ele>
        <time>2022-06-02T17:36:21Z</time>
      </trkpt>
      <trkpt lat="43.57738" lon="1.34358">
        <ele>156</ele>
        <time>2022-06-02T17:36:28Z</time>
      </trkpt>
      <trkpt lat="43.57738" lon="1.34371">
        <ele>156</ele>
        <time>2022-06-02T17:36:31Z</time>
      </trkpt>
      <trkpt lat="43.57743" lon="1.34399">
        <ele>156</ele>
        <time>2022-06-02T17:36:35Z</time>
      </trkpt>
      <trkpt lat="43.57763" lon="1.34446">
        <ele>156</ele>
        <time>2022-06-02T17:36:45Z</time>
      </trkpt>
      <trkpt lat="43.57767" lon="1.34465">
        <ele>156</ele>
        <time>2022-06-02T17:36:48Z</time>
      </trkpt>
      <trkpt lat="43.57773" lon="1.34583">
        <ele>156</ele>
        <time>2022-06-02T17:37:08Z</time>
      </trkpt>
      <trkpt lat="43.57783" lon="1.34661">
        <ele>156</ele>
        <time>2022-06-02T17:37:21Z</time>
      </trkpt>
      <trkpt lat="43.57791" lon="1.34705">
        <ele>156</ele>
        <time>2022-06-02T17:37:29Z</time>
      </trkpt>
      <trkpt lat="43.57804" lon="1.34739">
        <ele>157</ele>
        <time>2022-06-02T17:37:36Z</time>
      </trkpt>
      <trkpt lat="43.57827" lon="1.3479">
        <ele>158</ele>
        <time>2022-06-02T17:37:46Z</time>
      </trkpt>
      <trkpt lat="43.57851" lon="1.34826">
        <ele>158</ele>
        <time>2022-06-02T17:37:54Z</time>
      </trkpt>
      <trkpt lat="43.57886" lon="1.34851">
        <ele>158</ele>
        <time>2022-06-02T17:38:03Z</time>
      </trkpt>
      <trkpt lat="43.57909" lon="1.34879">
        <ele>158</ele>
        <time>2022-06-02T17:38:10Z</time>
      </trkpt>
      <trkpt lat="43.57908" lon="1.34887">
        <ele>158</ele>
        <time>2022-06-02T17:38:12Z</time>
      </trkpt>
      <trkpt lat="43.57917" lon="1.34898">
        <ele>157</ele>
        <time>2022-06-02T17:38:15Z</time>
      </trkpt>
      <trkpt lat="43.5793" lon="1.34905">
        <ele>157</ele>
        <time>2022-06-02T17:38:18Z</time>
      </trkpt>
      <trkpt lat="43.57937" lon="1.34915">
        <ele>156</ele>
        <time>2022-06-02T17:38:20Z</time>
      </trkpt>
      <trkpt lat="43.5797" lon="1.34931">
        <ele>155</ele>
        <time>2022-06-02T17:38:28Z</time>
      </trkpt>
      <trkpt lat="43.57995" lon="1.34962">
        <ele>154</ele>
        <time>2022-06-02T17:38:36Z</time>
      </trkpt>
      <trkpt lat="43.58021" lon="1.34986">
        <ele>154</ele>
        <time>2022-06-02T17:38:44Z</time>
      </trkpt>
      <trkpt lat="43.58036" lon="1.34995">
        <ele>154</ele>
        <time>2022-06-02T17:38:47Z</time>
      </trkpt>
      <trkpt lat="43.58078" lon="1.35009">
        <ele>154</ele>
        <time>2022-06-02T17:38:57Z</time>
      </trkpt>
      <trkpt lat="43.58109" lon="1.35013">
        <ele>155</ele>
        <time>2022-06-02T17:39:05Z</time>
      </trkpt>
      <trkpt lat="43.58134" lon="1.3503">
        <ele>156</ele>
        <time>2022-06-02T17:39:11Z</time>
      </trkpt>
      <trkpt lat="43.58145" lon="1.35029">
        <ele>156</ele>
        <time>2022-06-02T17:39:14Z</time>
      </trkpt>
      <trkpt lat="43.58178" lon="1.35015">
        <ele>157</ele>
        <time>2022-06-02T17:39:22Z</time>
      </trkpt>
      <trkpt lat="43.58194" lon="1.35063">
        <ele>156</ele>
        <time>2022-06-02T17:39:31Z</time>
      </trkpt>
      <trkpt lat="43.58209" lon="1.35077">
        <ele>155</ele>
        <time>2022-06-02T17:39:35Z</time>
      </trkpt>
      <trkpt lat="43.58221" lon="1.35099">
        <ele>154</ele>
        <time>2022-06-02T17:39:40Z</time>
      </trkpt>
      <trkpt lat="43.5824" lon="1.35091">
        <ele>153</ele>
        <time>2022-06-02T17:39:44Z</time>
      </trkpt>
      <trkpt lat="43.58286" lon="1.35081">
        <ele>155</ele>
        <time>2022-06-02T17:39:55Z</time>
      </trkpt>
      <trkpt lat="43.58307" lon="1.35085">
        <ele>156</ele>
        <time>2022-06-02T17:40:00Z</time>
      </trkpt>
      <trkpt lat="43.58314" lon="1.35091">
        <ele>156</ele>
        <time>2022-06-02T17:40:02Z</time>
      </trkpt>
      <trkpt lat="43.5835" lon="1.35162">
        <ele>155</ele>
        <time>2022-06-02T17:40:17Z</time>
      </trkpt>
      <trkpt lat="43.58367" lon="1.35182">
        <ele>155</ele>
        <time>2022-06-02T17:40:22Z</time>
      </trkpt>
      <trkpt lat="43.5838" lon="1.35209">
        <ele>155</ele>
        <time>2022-06-02T17:40:27Z</time>
      </trkpt>
      <trkpt lat="43.58399" lon="1.35337">
        <ele>153</ele>
        <time>2022-06-02T17:40:50Z</time>
      </trkpt>
      <trkpt lat="43.58447" lon="1.3537">
        <ele>153</ele>
        <time>2022-06-02T17:41:02Z</time>
      </trkpt>
      <trkpt lat="43.58453" lon="1.35379">
        <ele>153</ele>
        <time>2022-06-02T17:41:04Z</time>
      </trkpt>
      <trkpt lat="43.58465" lon="1.35454">
        <ele>153</ele>
        <time>2022-06-02T17:41:17Z</time>
      </trkpt>
      <trkpt lat="43.58457" lon="1.35511">
        <ele>152</ele>
        <time>2022-06-02T17:41:27Z</time>
      </trkpt>
      <trkpt lat="43.58445" lon="1.35558">
        <ele>153</ele>
        <time>2022-06-02T17:41:35Z</time>
      </trkpt>
      <trkpt lat="43.58427" lon="1.35588">
        <ele>154</ele>
        <time>2022-06-02T17:41:42Z</time>
      </trkpt>
      <trkpt lat="43.58405" lon="1.35647">
        <ele>152</ele>
        <time>2022-06-02T17:41:53Z</time>
      </trkpt>
      <trkpt lat="43.58399" lon="1.35658">
        <ele>152</ele>
        <time>2022-06-02T17:41:56Z</time>
      </trkpt>
      <trkpt lat="43.58357" lon="1.35691">
        <ele>153</ele>
        <time>2022-06-02T17:42:07Z</time>
      </trkpt>
      <trkpt lat="43.58347" lon="1.35706">
        <ele>152</ele>
        <time>2022-06-02T17:42:10Z</time>
      </trkpt>
      <trkpt lat="43.58336" lon="1.3575">
        <ele>150</ele>
        <time>2022-06-02T17:42:18Z</time>
      </trkpt>
      <trkpt lat="43.58336" lon="1.35774">
        <ele>151</ele>
        <time>2022-06-02T17:42:22Z</time>
      </trkpt>
      <trkpt lat="43.58341" lon="1.35796">
        <ele>151</ele>
        <time>2022-06-02T17:42:26Z</time>
      </trkpt>
      <trkpt lat="43.58364" lon="1.3583">
        <ele>152</ele>
        <time>2022-06-02T17:42:34Z</time>
      </trkpt>
      <trkpt lat="43.58397" lon="1.35866">
        <ele>152</ele>
        <time>2022-06-02T17:42:44Z</time>
      </trkpt>
      <trkpt lat="43.58422" lon="1.35939">
        <ele>154</ele>
        <time>2022-06-02T17:42:57Z</time>
      </trkpt>
      <trkpt lat="43.58459" lon="1.3599">
        <ele>153</ele>
        <time>2022-06-02T17:43:10Z</time>
      </trkpt>
      <trkpt lat="43.58499" lon="1.36055">
        <ele>151</ele>
        <time>2022-06-02T17:43:24Z</time>
      </trkpt>
      <trkpt lat="43.58528" lon="1.36075">
        <ele>151</ele>
        <time>2022-06-02T17:43:32Z</time>
      </trkpt>
      <trkpt lat="43.58536" lon="1.36089">
        <ele>151</ele>
        <time>2022-06-02T17:43:35Z</time>
      </trkpt>
      <trkpt lat="43.58559" lon="1.36113">
        <ele>150</ele>
        <time>2022-06-02T17:43:41Z</time>
      </trkpt>
      <trkpt lat="43.58588" lon="1.36133">
        <ele>149</ele>
        <time>2022-06-02T17:43:49Z</time>
      </trkpt>
      <trkpt lat="43.58602" lon="1.36147">
        <ele>149</ele>
        <time>2022-06-02T17:43:53Z</time>
      </trkpt>
      <trkpt lat="43.58621" lon="1.36176">
        <ele>148</ele>
        <time>2022-06-02T17:44:00Z</time>
      </trkpt>
      <trkpt lat="43.58675" lon="1.36199">
        <ele>145</ele>
        <time>2022-06-02T17:44:13Z</time>
      </trkpt>
      <trkpt lat="43.58696" lon="1.36212">
        <ele>145</ele>
        <time>2022-06-02T17:44:18Z</time>
      </trkpt>
      <trkpt lat="43.58719" lon="1.36193">
        <ele>146</ele>
        <time>2022-06-02T17:44:24Z</time>
      </trkpt>
      <trkpt lat="43.58778" lon="1.3616">
        <ele>150</ele>
        <time>2022-06-02T17:44:39Z</time>
      </trkpt>
      <trkpt lat="43.58779" lon="1.36155">
        <ele>150</ele>
        <time>2022-06-02T17:44:40Z</time>
      </trkpt>
      <trkpt lat="43.58609" lon="1.36224">
        <ele>148</ele>
        <time>2022-06-02T17:45:22Z</time>
      </trkpt>
      <trkpt lat="43.58528" lon="1.36266">
        <ele>151</ele>
        <time>2022-06-02T17:45:42Z</time>
      </trkpt>
      <trkpt lat="43.58517" lon="1.36274">
        <ele>151</ele>
        <time>2022-06-02T17:45:45Z</time>
      </trkpt>
      <trkpt lat="43.58517" lon="1.36281">
        <ele>151</ele>
        <time>2022-06-02T17:45:46Z</time>
      </trkpt>
      <trkpt lat="43.58528" lon="1.36279">
        <ele>151</ele>
        <time>2022-06-02T17:45:48Z</time>
      </trkpt>
      <trkpt lat="43.58601" lon="1.3624">
        <ele>149</ele>
        <time>2022-06-02T17:46:07Z</time>
      </trkpt>
      <trkpt lat="43.58621" lon="1.36237">
        <ele>147</ele>
        <time>2022-06-02T17:46:11Z</time>
      </trkpt>
      <trkpt lat="43.58629" lon="1.36242">
        <ele>147</ele>
        <time>2022-06-02T17:46:14Z</time>
      </trkpt>
      <trkpt lat="43.58684" lon="1.36315">
        <ele>145</ele>
        <time>2022-06-02T17:46:31Z</time>
      </trkpt>
      <trkpt lat="43.58717" lon="1.36341">
        <ele>144</ele>
        <time>2022-06-02T17:46:40Z</time>
      </trkpt>
      <trkpt lat="43.58752" lon="1.3638">
        <ele>145</ele>
        <time>2022-06-02T17:46:51Z</time>
      </trkpt>
      <trkpt lat="43.58799" lon="1.36424">
        <ele>147</ele>
        <time>2022-06-02T17:47:04Z</time>
      </trkpt>
      <trkpt lat="43.58822" lon="1.36476">
        <ele>148</ele>
        <time>2022-06-02T17:47:14Z</time>
      </trkpt>
      <trkpt lat="43.58821" lon="1.36485">
        <ele>148</ele>
        <time>2022-06-02T17:47:16Z</time>
      </trkpt>
      <trkpt lat="43.58838" lon="1.3652">
        <ele>148</ele>
        <time>2022-06-02T17:47:23Z</time>
      </trkpt>
      <trkpt lat="43.58854" lon="1.36574">
        <ele>149</ele>
        <time>2022-06-02T17:47:33Z</time>
      </trkpt>
      <trkpt lat="43.58865" lon="1.36592">
        <ele>150</ele>
        <time>2022-06-02T17:47:37Z</time>
      </trkpt>
      <trkpt lat="43.58874" lon="1.36599">
        <ele>150</ele>
        <time>2022-06-02T17:47:39Z</time>
      </trkpt>
      <trkpt lat="43.58892" lon="1.3665">
        <ele>153</ele>
        <time>2022-06-02T17:47:49Z</time>
      </trkpt>
      <trkpt lat="43.58916" lon="1.36683">
        <ele>154</ele>
        <time>2022-06-02T17:47:57Z</time>
      </trkpt>
      <trkpt lat="43.58924" lon="1.36689">
        <ele>154</ele>
        <time>2022-06-02T17:47:59Z</time>
      </trkpt>
      <trkpt lat="43.58967" lon="1.367">
        <ele>153</ele>
        <time>2022-06-02T17:48:09Z</time>
      </trkpt>
      <trkpt lat="43.58975" lon="1.36717">
        <ele>153</ele>
        <time>2022-06-02T17:48:12Z</time>
      </trkpt>
      <trkpt lat="43.58993" lon="1.36711">
        <ele>152</ele>
        <time>2022-06-02T17:48:17Z</time>
      </trkpt>
      <trkpt lat="43.59002" lon="1.36715">
        <ele>152</ele>
        <time>2022-06-02T17:48:19Z</time>
      </trkpt>
      <trkpt lat="43.59034" lon="1.36683">
        <ele>150</ele>
        <time>2022-06-02T17:48:28Z</time>
      </trkpt>
      <trkpt lat="43.59066" lon="1.3667">
        <ele>149</ele>
        <time>2022-06-02T17:48:36Z</time>
      </trkpt>
      <trkpt lat="43.59078" lon="1.36669">
        <ele>149</ele>
        <time>2022-06-02T17:48:39Z</time>
      </trkpt>
      <trkpt lat="43.5912" lon="1.36643">
        <ele>150</ele>
        <time>2022-06-02T17:48:50Z</time>
      </trkpt>
      <trkpt lat="43.59142" lon="1.36635">
        <ele>151</ele>
        <time>2022-06-02T17:48:55Z</time>
      </trkpt>
      <trkpt lat="43.59178" lon="1.3663">
        <ele>152</ele>
        <time>2022-06-02T17:49:03Z</time>
      </trkpt>
      <trkpt lat="43.59201" lon="1.36635">
        <ele>152</ele>
        <time>2022-06-02T17:49:09Z</time>
      </trkpt>
      <trkpt lat="43.59225" lon="1.3665">
        <ele>153</ele>
        <time>2022-06-02T17:49:15Z</time>
      </trkpt>
      <trkpt lat="43.59243" lon="1.36655">
        <ele>153</ele>
        <time>2022-06-02T17:49:19Z</time>
      </trkpt>
      <trkpt lat="43.59253" lon="1.36653">
        <ele>153</ele>
        <time>2022-06-02T17:49:22Z</time>
      </trkpt>
      <trkpt lat="43.59272" lon="1.36658">
        <ele>152</ele>
        <time>2022-06-02T17:49:26Z</time>
      </trkpt>
      <trkpt lat="43.59296" lon="1.36658">
        <ele>151</ele>
        <time>2022-06-02T17:49:32Z</time>
      </trkpt>
      <trkpt lat="43.59338" lon="1.36667">
        <ele>150</ele>
        <time>2022-06-02T17:49:42Z</time>
      </trkpt>
      <trkpt lat="43.59363" lon="1.36686">
        <ele>150</ele>
        <time>2022-06-02T17:49:48Z</time>
      </trkpt>
      <trkpt lat="43.59376" lon="1.36707">
        <ele>151</ele>
        <time>2022-06-02T17:49:53Z</time>
      </trkpt>
      <trkpt lat="43.59413" lon="1.36815">
        <ele>149</ele>
        <time>2022-06-02T17:50:13Z</time>
      </trkpt>
      <trkpt lat="43.59435" lon="1.36865">
        <ele>147</ele>
        <time>2022-06-02T17:50:23Z</time>
      </trkpt>
      <trkpt lat="43.59463" lon="1.36892">
        <ele>148</ele>
        <time>2022-06-02T17:50:31Z</time>
      </trkpt>
      <trkpt lat="43.59497" lon="1.36913">
        <ele>149</ele>
        <time>2022-06-02T17:50:40Z</time>
      </trkpt>
      <trkpt lat="43.59533" lon="1.36951">
        <ele>149</ele>
        <time>2022-06-02T17:50:50Z</time>
      </trkpt>
      <trkpt lat="43.59553" lon="1.36977">
        <ele>150</ele>
        <time>2022-06-02T17:50:57Z</time>
      </trkpt>
      <trkpt lat="43.59563" lon="1.37001">
        <ele>150</ele>
        <time>2022-06-02T17:51:01Z</time>
      </trkpt>
      <trkpt lat="43.59563" lon="1.37024">
        <ele>150</ele>
        <time>2022-06-02T17:51:05Z</time>
      </trkpt>
      <trkpt lat="43.59544" lon="1.37063">
        <ele>149</ele>
        <time>2022-06-02T17:51:13Z</time>
      </trkpt>
      <trkpt lat="43.59541" lon="1.37087">
        <ele>149</ele>
        <time>2022-06-02T17:51:17Z</time>
      </trkpt>
      <trkpt lat="43.59573" lon="1.37249">
        <ele>149</ele>
        <time>2022-06-02T17:51:46Z</time>
      </trkpt>
      <trkpt lat="43.59592" lon="1.37281">
        <ele>149</ele>
        <time>2022-06-02T17:51:53Z</time>
      </trkpt>
      <trkpt lat="43.59599" lon="1.37323">
        <ele>151</ele>
        <time>2022-06-02T17:52:00Z</time>
      </trkpt>
      <trkpt lat="43.59611" lon="1.37321">
        <ele>150</ele>
        <time>2022-06-02T17:52:03Z</time>
      </trkpt>
      <trkpt lat="43.59619" lon="1.37327">
        <ele>150</ele>
        <time>2022-06-02T17:52:05Z</time>
      </trkpt>
      <trkpt lat="43.59628" lon="1.37397">
        <ele>150</ele>
        <time>2022-06-02T17:52:17Z</time>
      </trkpt>
      <trkpt lat="43.59621" lon="1.37442">
        <ele>150</ele>
        <time>2022-06-02T17:52:25Z</time>
      </trkpt>
      <trkpt lat="43.59602" lon="1.37482">
        <ele>151</ele>
        <time>2022-06-02T17:52:33Z</time>
      </trkpt>
      <trkpt lat="43.59595" lon="1.37541">
        <ele>153</ele>
        <time>2022-06-02T17:52:43Z</time>
      </trkpt>
      <trkpt lat="43.59642" lon="1.3761">
        <ele>150</ele>
        <time>2022-06-02T17:52:59Z</time>
      </trkpt>
      <trkpt lat="43.59671" lon="1.37661">
        <ele>147</ele>
        <time>2022-06-02T17:53:10Z</time>
      </trkpt>
      <trkpt lat="43.59695" lon="1.37666">
        <ele>147</ele>
        <time>2022-06-02T17:53:16Z</time>
      </trkpt>
      <trkpt lat="43.59722" lon="1.37661">
        <ele>148</ele>
        <time>2022-06-02T17:53:22Z</time>
      </trkpt>
      <trkpt lat="43.59757" lon="1.37606">
        <ele>149</ele>
        <time>2022-06-02T17:53:34Z</time>
      </trkpt>
      <trkpt lat="43.59782" lon="1.37579">
        <ele>149</ele>
        <time>2022-06-02T17:53:42Z</time>
      </trkpt>
      <trkpt lat="43.59794" lon="1.37572">
        <ele>149</ele>
        <time>2022-06-02T17:53:45Z</time>
      </trkpt>
      <trkpt lat="43.59803" lon="1.37572">
        <ele>149</ele>
        <time>2022-06-02T17:53:47Z</time>
      </trkpt>
      <trkpt lat="43.59815" lon="1.37594">
        <ele>148</ele>
        <time>2022-06-02T17:53:52Z</time>
      </trkpt>
      <trkpt lat="43.59826" lon="1.37595">
        <ele>148</ele>
        <time>2022-06-02T17:53:54Z</time>
      </trkpt>
      <trkpt lat="43.59832" lon="1.37604">
        <ele>149</ele>
        <time>2022-06-02T17:53:56Z</time>
      </trkpt>
      <trkpt lat="43.59846" lon="1.37603">
        <ele>148</ele>
        <time>2022-06-02T17:54:00Z</time>
      </trkpt>
      <trkpt lat="43.59853" lon="1.37607">
        <ele>148</ele>
        <time>2022-06-02T17:54:01Z</time>
      </trkpt>
      <trkpt lat="43.59861" lon="1.37623">
        <ele>148</ele>
        <time>2022-06-02T17:54:05Z</time>
      </trkpt>
      <trkpt lat="43.59873" lon="1.37629">
        <ele>147</ele>
        <time>2022-06-02T17:54:08Z</time>
      </trkpt>
      <trkpt lat="43.5988" lon="1.37664">
        <ele>147</ele>
        <time>2022-06-02T17:54:14Z</time>
      </trkpt>
      <trkpt lat="43.59886" lon="1.37667">
        <ele>147</ele>
        <time>2022-06-02T17:54:15Z</time>
      </trkpt>
      <trkpt lat="43.5989" lon="1.37682">
        <ele>146</ele>
        <time>2022-06-02T17:54:18Z</time>
      </trkpt>
      <trkpt lat="43.5988" lon="1.37703">
        <ele>147</ele>
        <time>2022-06-02T17:54:22Z</time>
      </trkpt>
      <trkpt lat="43.59879" lon="1.37743">
        <ele>146</ele>
        <time>2022-06-02T17:54:29Z</time>
      </trkpt>
      <trkpt lat="43.5991" lon="1.37767">
        <ele>147</ele>
        <time>2022-06-02T17:54:37Z</time>
      </trkpt>
      <trkpt lat="43.59921" lon="1.3777">
        <ele>147</ele>
        <time>2022-06-02T17:54:40Z</time>
      </trkpt>
      <trkpt lat="43.59959" lon="1.37749">
        <ele>145</ele>
        <time>2022-06-02T17:54:49Z</time>
      </trkpt>
      <trkpt lat="43.60001" lon="1.37697">
        <ele>146</ele>
        <time>2022-06-02T17:55:03Z</time>
      </trkpt>
      <trkpt lat="43.6002" lon="1.3769">
        <ele>146</ele>
        <time>2022-06-02T17:55:07Z</time>
      </trkpt>
      <trkpt lat="43.6003" lon="1.37682">
        <ele>146</ele>
        <time>2022-06-02T17:55:10Z</time>
      </trkpt>
      <trkpt lat="43.60049" lon="1.37635">
        <ele>146</ele>
        <time>2022-06-02T17:55:19Z</time>
      </trkpt>
      <trkpt lat="43.60042" lon="1.37595">
        <ele>146</ele>
        <time>2022-06-02T17:55:26Z</time>
      </trkpt>
      <trkpt lat="43.60043" lon="1.37575">
        <ele>145</ele>
        <time>2022-06-02T17:55:29Z</time>
      </trkpt>
      <trkpt lat="43.60078" lon="1.37523">
        <ele>145</ele>
        <time>2022-06-02T17:55:41Z</time>
      </trkpt>
      <trkpt lat="43.60095" lon="1.37523">
        <ele>145</ele>
        <time>2022-06-02T17:55:45Z</time>
      </trkpt>
      <trkpt lat="43.60107" lon="1.37531">
        <ele>146</ele>
        <time>2022-06-02T17:55:48Z</time>
      </trkpt>
      <trkpt lat="43.60138" lon="1.37582">
        <ele>144</ele>
        <time>2022-06-02T17:56:00Z</time>
      </trkpt>
      <trkpt lat="43.60137" lon="1.376">
        <ele>144</ele>
        <time>2022-06-02T17:56:03Z</time>
      </trkpt>
      <trkpt lat="43.6013" lon="1.37615">
        <ele>145</ele>
        <time>2022-06-02T17:56:06Z</time>
      </trkpt>
      <trkpt lat="43.6013" lon="1.37631">
        <ele>145</ele>
        <time>2022-06-02T17:56:08Z</time>
      </trkpt>
      <trkpt lat="43.60153" lon="1.37754">
        <ele>145</ele>
        <time>2022-06-02T17:56:30Z</time>
      </trkpt>
      <trkpt lat="43.60176" lon="1.37827">
        <ele>145</ele>
        <time>2022-06-02T17:56:43Z</time>
      </trkpt>
      <trkpt lat="43.60194" lon="1.3785">
        <ele>144</ele>
        <time>2022-06-02T17:56:49Z</time>
      </trkpt>
      <trkpt lat="43.60206" lon="1.37855">
        <ele>143</ele>
        <time>2022-06-02T17:56:52Z</time>
      </trkpt>
      <trkpt lat="43.60254" lon="1.37862">
        <ele>142</ele>
        <time>2022-06-02T17:57:03Z</time>
      </trkpt>
      <trkpt lat="43.60294" lon="1.37862">
        <ele>143</ele>
        <time>2022-06-02T17:57:13Z</time>
      </trkpt>
      <trkpt lat="43.60316" lon="1.37852">
        <ele>144</ele>
        <time>2022-06-02T17:57:18Z</time>
      </trkpt>
      <trkpt lat="43.60341" lon="1.3785">
        <ele>145</ele>
        <time>2022-06-02T17:57:24Z</time>
      </trkpt>
      <trkpt lat="43.60351" lon="1.37864">
        <ele>144</ele>
        <time>2022-06-02T17:57:27Z</time>
      </trkpt>
      <trkpt lat="43.6036" lon="1.37898">
        <ele>144</ele>
        <time>2022-06-02T17:57:33Z</time>
      </trkpt>
      <trkpt lat="43.60375" lon="1.37918">
        <ele>143</ele>
        <time>2022-06-02T17:57:38Z</time>
      </trkpt>
      <trkpt lat="43.6043" lon="1.37955">
        <ele>144</ele>
        <time>2022-06-02T17:57:53Z</time>
      </trkpt>
      <trkpt lat="43.60442" lon="1.37955">
        <ele>144</ele>
        <time>2022-06-02T17:57:55Z</time>
      </trkpt>
      <trkpt lat="43.6048" lon="1.37972">
        <ele>144</ele>
        <time>2022-06-02T17:58:05Z</time>
      </trkpt>
      <trkpt lat="43.60516" lon="1.38019">
        <ele>145</ele>
        <time>2022-06-02T17:58:16Z</time>
      </trkpt>
      <trkpt lat="43.60549" lon="1.38023">
        <ele>145</ele>
        <time>2022-06-02T17:58:24Z</time>
      </trkpt>
      <trkpt lat="43.60575" lon="1.38021">
        <ele>144</ele>
        <time>2022-06-02T17:58:30Z</time>
      </trkpt>
      <trkpt lat="43.60586" lon="1.38014">
        <ele>144</ele>
        <time>2022-06-02T17:58:33Z</time>
      </trkpt>
      <trkpt lat="43.60594" lon="1.38001">
        <ele>143</ele>
        <time>2022-06-02T17:58:36Z</time>
      </trkpt>
      <trkpt lat="43.60607" lon="1.37993">
        <ele>143</ele>
        <time>2022-06-02T17:58:39Z</time>
      </trkpt>
      <trkpt lat="43.60655" lon="1.37988">
        <ele>144</ele>
        <time>2022-06-02T17:58:50Z</time>
      </trkpt>
      <trkpt lat="43.60678" lon="1.37979">
        <ele>144</ele>
        <time>2022-06-02T17:58:56Z</time>
      </trkpt>
      <trkpt lat="43.60706" lon="1.37994">
        <ele>144</ele>
        <time>2022-06-02T17:59:03Z</time>
      </trkpt>
      <trkpt lat="43.60714" lon="1.38012">
        <ele>144</ele>
        <time>2022-06-02T17:59:07Z</time>
      </trkpt>
      <trkpt lat="43.60715" lon="1.38037">
        <ele>145</ele>
        <time>2022-06-02T17:59:11Z</time>
      </trkpt>
      <trkpt lat="43.60659" lon="1.38216">
        <ele>149</ele>
        <time>2022-06-02T17:59:44Z</time>
      </trkpt>
      <trkpt lat="43.60624" lon="1.38278">
        <ele>149</ele>
        <time>2022-06-02T17:59:57Z</time>
      </trkpt>
      <trkpt lat="43.6061" lon="1.38317">
        <ele>148</ele>
        <time>2022-06-02T18:00:04Z</time>
      </trkpt>
      <trkpt lat="43.6059" lon="1.38412">
        <ele>147</ele>
        <time>2022-06-02T18:00:21Z</time>
      </trkpt>
      <trkpt lat="43.6058" lon="1.38478">
        <ele>152</ele>
        <time>2022-06-02T18:00:33Z</time>
      </trkpt>
      <trkpt lat="43.60578" lon="1.38523">
        <ele>155</ele>
        <time>2022-06-02T18:00:40Z</time>
      </trkpt>
      <trkpt lat="43.60589" lon="1.3856">
        <ele>156</ele>
        <time>2022-06-02T18:00:47Z</time>
      </trkpt>
      <trkpt lat="43.60599" lon="1.38577">
        <ele>157</ele>
        <time>2022-06-02T18:00:51Z</time>
      </trkpt>
      <trkpt lat="43.60645" lon="1.38593">
        <ele>154</ele>
        <time>2022-06-02T18:01:02Z</time>
      </trkpt>
      <trkpt lat="43.60702" lon="1.38586">
        <ele>152</ele>
        <time>2022-06-02T18:01:15Z</time>
      </trkpt>
      <trkpt lat="43.60736" lon="1.38604">
        <ele>152</ele>
        <time>2022-06-02T18:01:24Z</time>
      </trkpt>
      <trkpt lat="43.60778" lon="1.38641">
        <ele>150</ele>
        <time>2022-06-02T18:01:35Z</time>
      </trkpt>
      <trkpt lat="43.60786" lon="1.38672">
        <ele>150</ele>
        <time>2022-06-02T18:01:41Z</time>
      </trkpt>
      <trkpt lat="43.6077" lon="1.38721">
        <ele>150</ele>
        <time>2022-06-02T18:01:50Z</time>
      </trkpt>
      <trkpt lat="43.60752" lon="1.38756">
        <ele>150</ele>
        <time>2022-06-02T18:01:57Z</time>
      </trkpt>
      <trkpt lat="43.60722" lon="1.38773">
        <ele>151</ele>
        <time>2022-06-02T18:02:05Z</time>
      </trkpt>
      <trkpt lat="43.6071" lon="1.38786">
        <ele>151</ele>
        <time>2022-06-02T18:02:08Z</time>
      </trkpt>
      <trkpt lat="43.60709" lon="1.38799">
        <ele>151</ele>
        <time>2022-06-02T18:02:10Z</time>
      </trkpt>
      <trkpt lat="43.60717" lon="1.38806">
        <ele>151</ele>
        <time>2022-06-02T18:02:13Z</time>
      </trkpt>
      <trkpt lat="43.60742" lon="1.38796">
        <ele>150</ele>
        <time>2022-06-02T18:02:19Z</time>
      </trkpt>
      <trkpt lat="43.60755" lon="1.38801">
        <ele>149</ele>
        <time>2022-06-02T18:02:22Z</time>
      </trkpt>
      <trkpt lat="43.60766" lon="1.38799">
        <ele>149</ele>
        <time>2022-06-02T18:02:24Z</time>
      </trkpt>
      <trkpt lat="43.60779" lon="1.38816">
        <ele>149</ele>
        <time>2022-06-02T18:02:29Z</time>
      </trkpt>
      <trkpt lat="43.60791" lon="1.38844">
        <ele>149</ele>
        <time>2022-06-02T18:02:34Z</time>
      </trkpt>
      <trkpt lat="43.608" lon="1.3889">
        <ele>149</ele>
        <time>2022-06-02T18:02:42Z</time>
      </trkpt>
      <trkpt lat="43.60808" lon="1.38909">
        <ele>149</ele>
        <time>2022-06-02T18:02:46Z</time>
      </trkpt>
      <trkpt lat="43.60824" lon="1.39052">
        <ele>151</ele>
        <time>2022-06-02T18:03:10Z</time>
      </trkpt>
      <trkpt lat="43.60879" lon="1.39077">
        <ele>152</ele>
        <time>2022-06-02T18:03:24Z</time>
      </trkpt>
      <trkpt lat="43.60894" lon="1.39087">
        <ele>152</ele>
        <time>2022-06-02T18:03:28Z</time>
      </trkpt>
      <trkpt lat="43.60899" lon="1.39096">
        <ele>152</ele>
        <time>2022-06-02T18:03:30Z</time>
      </trkpt>
      <trkpt lat="43.60931" lon="1.3911">
        <ele>153</ele>
        <time>2022-06-02T18:03:38Z</time>
      </trkpt>
      <trkpt lat="43.6094" lon="1.39121">
        <ele>152</ele>
        <time>2022-06-02T18:03:40Z</time>
      </trkpt>
      <trkpt lat="43.60959" lon="1.39127">
        <ele>153</ele>
        <time>2022-06-02T18:03:45Z</time>
      </trkpt>
      <trkpt lat="43.60998" lon="1.39154">
        <ele>154</ele>
        <time>2022-06-02T18:03:55Z</time>
      </trkpt>
      <trkpt lat="43.61067" lon="1.39189">
        <ele>153</ele>
        <time>2022-06-02T18:04:12Z</time>
      </trkpt>
      <trkpt lat="43.61098" lon="1.3921">
        <ele>153</ele>
        <time>2022-06-02T18:04:20Z</time>
      </trkpt>
      <trkpt lat="43.61128" lon="1.39222">
        <ele>152</ele>
        <time>2022-06-02T18:04:28Z</time>
      </trkpt>
      <trkpt lat="43.61145" lon="1.39235">
        <ele>151</ele>
        <time>2022-06-02T18:04:32Z</time>
      </trkpt>
      <trkpt lat="43.61161" lon="1.39238">
        <ele>150</ele>
        <time>2022-06-02T18:04:36Z</time>
      </trkpt>
      <trkpt lat="43.61173" lon="1.39245">
        <ele>150</ele>
        <time>2022-06-02T18:04:39Z</time>
      </trkpt>
      <trkpt lat="43.61227" lon="1.39249">
        <ele>149</ele>
        <time>2022-06-02T18:04:52Z</time>
      </trkpt>
      <trkpt lat="43.61258" lon="1.39264">
        <ele>150</ele>
        <time>2022-06-02T18:04:59Z</time>
      </trkpt>
      <trkpt lat="43.61262" lon="1.39274">
        <ele>151</ele>
        <time>2022-06-02T18:05:01Z</time>
      </trkpt>
      <trkpt lat="43.61277" lon="1.39284">
        <ele>152</ele>
        <time>2022-06-02T18:05:05Z</time>
      </trkpt>
      <trkpt lat="43.61275" lon="1.39289">
        <ele>152</ele>
        <time>2022-06-02T18:05:06Z</time>
      </trkpt>
      <trkpt lat="43.61282" lon="1.39301">
        <ele>153</ele>
        <time>2022-06-02T18:05:09Z</time>
      </trkpt>
      <trkpt lat="43.61294" lon="1.3931">
        <ele>153</ele>
        <time>2022-06-02T18:05:12Z</time>
      </trkpt>
      <trkpt lat="43.61308" lon="1.39319">
        <ele>154</ele>
        <time>2022-06-02T18:05:15Z</time>
      </trkpt>
      <trkpt lat="43.61335" lon="1.39325">
        <ele>155</ele>
        <time>2022-06-02T18:05:22Z</time>
      </trkpt>
      <trkpt lat="43.6139" lon="1.39364">
        <ele>154</ele>
        <time>2022-06-02T18:05:36Z</time>
      </trkpt>
      <trkpt lat="43.6142" lon="1.39393">
        <ele>156</ele>
        <time>2022-06-02T18:05:45Z</time>
      </trkpt>
      <trkpt lat="43.61475" lon="1.39431">
        <ele>156</ele>
        <time>2022-06-02T18:05:59Z</time>
      </trkpt>
      <trkpt lat="43.61599" lon="1.39493">
        <ele>153</ele>
        <time>2022-06-02T18:06:30Z</time>
      </trkpt>
      <trkpt lat="43.61675" lon="1.39558">
        <ele>151</ele>
        <time>2022-06-02T18:06:51Z</time>
      </trkpt>
      <trkpt lat="43.61773" lon="1.39668">
        <ele>154</ele>
        <time>2022-06-02T18:07:20Z</time>
      </trkpt>
      <trkpt lat="43.6179" lon="1.39701">
        <ele>153</ele>
        <time>2022-06-02T18:07:27Z</time>
      </trkpt>
      <trkpt lat="43.61807" lon="1.39703">
        <ele>152</ele>
        <time>2022-06-02T18:07:31Z</time>
      </trkpt>
      <trkpt lat="43.61854" lon="1.39697">
        <ele>151</ele>
        <time>2022-06-02T18:07:42Z</time>
      </trkpt>
      <trkpt lat="43.61866" lon="1.39705">
        <ele>150</ele>
        <time>2022-06-02T18:07:45Z</time>
      </trkpt>
      <trkpt lat="43.6188" lon="1.39707">
        <ele>150</ele>
        <time>2022-06-02T18:07:49Z</time>
      </trkpt>
      <trkpt lat="43.61892" lon="1.39697">
        <ele>149</ele>
        <time>2022-06-02T18:07:52Z</time>
      </trkpt>
      <trkpt lat="43.61943" lon="1.39688">
        <ele>146</ele>
        <time>2022-06-02T18:08:04Z</time>
      </trkpt>
      <trkpt lat="43.6212" lon="1.39685">
        <ele>138</ele>
        <time>2022-06-02T18:08:45Z</time>
      </trkpt>
      <trkpt lat="43.62127" lon="1.39703">
        <ele>138</ele>
        <time>2022-06-02T18:08:49Z</time>
      </trkpt>
      <trkpt lat="43.62133" lon="1.39705">
        <ele>138</ele>
        <time>2022-06-02T18:08:50Z</time>
      </trkpt>
      <trkpt lat="43.62158" lon="1.39699">
        <ele>138</ele>
        <time>2022-06-02T18:08:56Z</time>
      </trkpt>
      <trkpt lat="43.62181" lon="1.39705">
        <ele>138</ele>
        <time>2022-06-02T18:09:02Z</time>
      </trkpt>
      <trkpt lat="43.62232" lon="1.3975">
        <ele>138</ele>
        <time>2022-06-02T18:09:16Z</time>
      </trkpt>
      <trkpt lat="43.62297" lon="1.39781">
        <ele>137</ele>
        <time>2022-06-02T18:09:32Z</time>
      </trkpt>
      <trkpt lat="43.62432" lon="1.39864">
        <ele>136</ele>
        <time>2022-06-02T18:10:06Z</time>
      </trkpt>
      <trkpt lat="43.62455" lon="1.39874">
        <ele>136</ele>
        <time>2022-06-02T18:10:12Z</time>
      </trkpt>
      <trkpt lat="43.62472" lon="1.39888">
        <ele>136</ele>
        <time>2022-06-02T18:10:16Z</time>
      </trkpt>
      <trkpt lat="43.62482" lon="1.39935">
        <ele>134</ele>
        <time>2022-06-02T18:10:25Z</time>
      </trkpt>
      <trkpt lat="43.62462" lon="1.4027">
        <ele>132</ele>
        <time>2022-06-02T18:11:22Z</time>
      </trkpt>
      <trkpt lat="43.62458" lon="1.40271">
        <ele>131</ele>
        <time>2022-06-02T18:11:23Z</time>
      </trkpt>
      <trkpt lat="43.62462" lon="1.40244">
        <ele>131</ele>
        <time>2022-06-02T18:11:27Z</time>
      </trkpt>
      <trkpt lat="43.62461" lon="1.40234">
        <ele>130</ele>
        <time>2022-06-02T18:11:29Z</time>
      </trkpt>
      <trkpt lat="43.62456" lon="1.40228">
        <ele>129</ele>
        <time>2022-06-02T18:11:30Z</time>
      </trkpt>
      <trkpt lat="43.62375" lon="1.40216">
        <ele>126</ele>
        <time>2022-06-02T18:11:49Z</time>
      </trkpt>
      <trkpt lat="43.62322" lon="1.40216">
        <ele>125</ele>
        <time>2022-06-02T18:12:02Z</time>
      </trkpt>
      <trkpt lat="43.62282" lon="1.4022">
        <ele>126</ele>
        <time>2022-06-02T18:12:11Z</time>
      </trkpt>
      <trkpt lat="43.62249" lon="1.40229">
        <ele>127</ele>
        <time>2022-06-02T18:12:19Z</time>
      </trkpt>
      <trkpt lat="43.62221" lon="1.40228">
        <ele>126</ele>
        <time>2022-06-02T18:12:26Z</time>
      </trkpt>
      <trkpt lat="43.62213" lon="1.40236">
        <ele>127</ele>
        <time>2022-06-02T18:12:28Z</time>
      </trkpt>
      <trkpt lat="43.62147" lon="1.40246">
        <ele>126</ele>
        <time>2022-06-02T18:12:43Z</time>
      </trkpt>
      <trkpt lat="43.62058" lon="1.40275">
        <ele>127</ele>
        <time>2022-06-02T18:13:05Z</time>
      </trkpt>
      <trkpt lat="43.61988" lon="1.40309">
        <ele>129</ele>
        <time>2022-06-02T18:13:22Z</time>
      </trkpt>
      <trkpt lat="43.61917" lon="1.4033">
        <ele>128</ele>
        <time>2022-06-02T18:13:39Z</time>
      </trkpt>
      <trkpt lat="43.61833" lon="1.40367">
        <ele>128</ele>
        <time>2022-06-02T18:14:00Z</time>
      </trkpt>
      <trkpt lat="43.61764" lon="1.40389">
        <ele>128</ele>
        <time>2022-06-02T18:14:16Z</time>
      </trkpt>
      <trkpt lat="43.6171" lon="1.40418">
        <ele>129</ele>
        <time>2022-06-02T18:14:30Z</time>
      </trkpt>
      <trkpt lat="43.61604" lon="1.4049">
        <ele>130</ele>
        <time>2022-06-02T18:14:57Z</time>
      </trkpt>
      <trkpt lat="43.61584" lon="1.4051">
        <ele>131</ele>
        <time>2022-06-02T18:15:03Z</time>
      </trkpt>
      <trkpt lat="43.61552" lon="1.40533">
        <ele>130</ele>
        <time>2022-06-02T18:15:11Z</time>
      </trkpt>
      <trkpt lat="43.61517" lon="1.40575">
        <ele>132</ele>
        <time>2022-06-02T18:15:22Z</time>
      </trkpt>
      <trkpt lat="43.61483" lon="1.40605">
        <ele>132</ele>
        <time>2022-06-02T18:15:32Z</time>
      </trkpt>
      <trkpt lat="43.6144" lon="1.40656">
        <ele>130</ele>
        <time>2022-06-02T18:15:45Z</time>
      </trkpt>
      <trkpt lat="43.61404" lon="1.4069">
        <ele>129</ele>
        <time>2022-06-02T18:15:55Z</time>
      </trkpt>
      <trkpt lat="43.61303" lon="1.4081">
        <ele>130</ele>
        <time>2022-06-02T18:16:26Z</time>
      </trkpt>
      <trkpt lat="43.61265" lon="1.40849">
        <ele>131</ele>
        <time>2022-06-02T18:16:37Z</time>
      </trkpt>
      <trkpt lat="43.61241" lon="1.40881">
        <ele>132</ele>
        <time>2022-06-02T18:16:45Z</time>
      </trkpt>
      <trkpt lat="43.6119" lon="1.40932">
        <ele>129</ele>
        <time>2022-06-02T18:17:00Z</time>
      </trkpt>
      <trkpt lat="43.61148" lon="1.4099">
        <ele>127</ele>
        <time>2022-06-02T18:17:14Z</time>
      </trkpt>
      <trkpt lat="43.61118" lon="1.4102">
        <ele>128</ele>
        <time>2022-06-02T18:17:22Z</time>
      </trkpt>
      <trkpt lat="43.6104" lon="1.41118">
        <ele>130</ele>
        <time>2022-06-02T18:17:47Z</time>
      </trkpt>
      <trkpt lat="43.61018" lon="1.4116">
        <ele>132</ele>
        <time>2022-06-02T18:17:56Z</time>
      </trkpt>
      <trkpt lat="43.60987" lon="1.41207">
        <ele>133</ele>
        <time>2022-06-02T18:18:06Z</time>
      </trkpt>
      <trkpt lat="43.60985" lon="1.41223">
        <ele>134</ele>
        <time>2022-06-02T18:18:09Z</time>
      </trkpt>
      <trkpt lat="43.6096" lon="1.41263">
        <ele>135</ele>
        <time>2022-06-02T18:18:18Z</time>
      </trkpt>
      <trkpt lat="43.60947" lon="1.41298">
        <ele>136</ele>
        <time>2022-06-02T18:18:25Z</time>
      </trkpt>
      <trkpt lat="43.6093" lon="1.41323">
        <ele>136</ele>
        <time>2022-06-02T18:18:31Z</time>
      </trkpt>
      <trkpt lat="43.6092" lon="1.41325">
        <ele>136</ele>
        <time>2022-06-02T18:18:33Z</time>
      </trkpt>
      <trkpt lat="43.60903" lon="1.41345">
        <ele>134</ele>
        <time>2022-06-02T18:18:38Z</time>
      </trkpt>
      <trkpt lat="43.60886" lon="1.41391">
        <ele>135</ele>
        <time>2022-06-02T18:18:47Z</time>
      </trkpt>
      <trkpt lat="43.60861" lon="1.41423">
        <ele>135</ele>
        <time>2022-06-02T18:18:55Z</time>
      </trkpt>
      <trkpt lat="43.60826" lon="1.41493">
        <ele>137</ele>
        <time>2022-06-02T18:19:09Z</time>
      </trkpt>
      <trkpt lat="43.60797" lon="1.41536">
        <ele>134</ele>
        <time>2022-06-02T18:19:19Z</time>
      </trkpt>
      <trkpt lat="43.60783" lon="1.41568">
        <ele>134</ele>
        <time>2022-06-02T18:19:26Z</time>
      </trkpt>
      <trkpt lat="43.60773" lon="1.41579">
        <ele>135</ele>
        <time>2022-06-02T18:19:29Z</time>
      </trkpt>
      <trkpt lat="43.60751" lon="1.41621">
        <ele>136</ele>
        <time>2022-06-02T18:19:37Z</time>
      </trkpt>
      <trkpt lat="43.60738" lon="1.41631">
        <ele>135</ele>
        <time>2022-06-02T18:19:41Z</time>
      </trkpt>
      <trkpt lat="43.60718" lon="1.41694">
        <ele>135</ele>
        <time>2022-06-02T18:19:52Z</time>
      </trkpt>
      <trkpt lat="43.60702" lon="1.41718">
        <ele>134</ele>
        <time>2022-06-02T18:19:58Z</time>
      </trkpt>
      <trkpt lat="43.60658" lon="1.41808">
        <ele>134</ele>
        <time>2022-06-02T18:20:16Z</time>
      </trkpt>
      <trkpt lat="43.60603" lon="1.41971">
        <ele>133</ele>
        <time>2022-06-02T18:20:47Z</time>
      </trkpt>
      <trkpt lat="43.60571" lon="1.42104">
        <ele>136</ele>
        <time>2022-06-02T18:21:10Z</time>
      </trkpt>
      <trkpt lat="43.60565" lon="1.42182">
        <ele>135</ele>
        <time>2022-06-02T18:21:24Z</time>
      </trkpt>
      <trkpt lat="43.60539" lon="1.42266">
        <ele>137</ele>
        <time>2022-06-02T18:21:39Z</time>
      </trkpt>
      <trkpt lat="43.60505" lon="1.42403">
        <ele>132</ele>
        <time>2022-06-02T18:22:04Z</time>
      </trkpt>
      <trkpt lat="43.60463" lon="1.4255">
        <ele>135</ele>
        <time>2022-06-02T18:22:30Z</time>
      </trkpt>
      <trkpt lat="43.60452" lon="1.42645">
        <ele>140</ele>
        <time>2022-06-02T18:22:47Z</time>
      </trkpt>
      <trkpt lat="43.6045" lon="1.42742">
        <ele>142</ele>
        <time>2022-06-02T18:23:03Z</time>
      </trkpt>
      <trkpt lat="43.60453" lon="1.42772">
        <ele>142</ele>
        <time>2022-06-02T18:23:08Z</time>
      </trkpt>
      <trkpt lat="43.60456" lon="1.42777">
        <ele>142</ele>
        <time>2022-06-02T18:23:09Z</time>
      </trkpt>
      <trkpt lat="43.60464" lon="1.42773">
        <ele>142</ele>
        <time>2022-06-02T18:23:11Z</time>
      </trkpt>
      <trkpt lat="43.60466" lon="1.4278">
        <ele>142</ele>
        <time>2022-06-02T18:23:12Z</time>
      </trkpt>
      <trkpt lat="43.60465" lon="1.42797">
        <ele>142</ele>
        <time>2022-06-02T18:23:15Z</time>
      </trkpt>
      <trkpt lat="43.60448" lon="1.42826">
        <ele>142</ele>
        <time>2022-06-02T18:23:22Z</time>
      </trkpt>
      <trkpt lat="43.60391" lon="1.42994">
        <ele>139</ele>
        <time>2022-06-02T18:23:53Z</time>
      </trkpt>
      <trkpt lat="43.60389" lon="1.43027">
        <ele>140</ele>
        <time>2022-06-02T18:23:59Z</time>
      </trkpt>
      <trkpt lat="43.60394" lon="1.43054">
        <ele>141</ele>
        <time>2022-06-02T18:24:03Z</time>
      </trkpt>
      <trkpt lat="43.60449" lon="1.43121">
        <ele>141</ele>
        <time>2022-06-02T18:24:20Z</time>
      </trkpt>
      <trkpt lat="43.60465" lon="1.43171">
        <ele>141</ele>
        <time>2022-06-02T18:24:30Z</time>
      </trkpt>
      <trkpt lat="43.60466" lon="1.43197">
        <ele>141</ele>
        <time>2022-06-02T18:24:34Z</time>
      </trkpt>
      <trkpt lat="43.60482" lon="1.43245">
        <ele>142</ele>
        <time>2022-06-02T18:24:43Z</time>
      </trkpt>
      <trkpt lat="43.60493" lon="1.43253">
        <ele>143</ele>
        <time>2022-06-02T18:24:46Z</time>
      </trkpt>
      <trkpt lat="43.60516" lon="1.43258">
        <ele>144</ele>
        <time>2022-06-02T18:24:51Z</time>
      </trkpt>
      <trkpt lat="43.60525" lon="1.43269">
        <ele>144</ele>
        <time>2022-06-02T18:24:54Z</time>
      </trkpt>
      <trkpt lat="43.60512" lon="1.43273">
        <ele>144</ele>
        <time>2022-06-02T18:24:57Z</time>
      </trkpt>
      <trkpt lat="43.60464" lon="1.43252">
        <ele>142</ele>
        <time>2022-06-02T18:25:09Z</time>
      </trkpt>
      <trkpt lat="43.60455" lon="1.43254">
        <ele>141</ele>
        <time>2022-06-02T18:25:11Z</time>
      </trkpt>
      <trkpt lat="43.60415" lon="1.43368">
        <ele>141</ele>
        <time>2022-06-02T18:25:33Z</time>
      </trkpt>
      <trkpt lat="43.60388" lon="1.43419">
        <ele>139</ele>
        <time>2022-06-02T18:25:43Z</time>
      </trkpt>
      <trkpt lat="43.60377" lon="1.43452">
        <ele>140</ele>
        <time>2022-06-02T18:25:49Z</time>
      </trkpt>
      <trkpt lat="43.60362" lon="1.43481">
        <ele>142</ele>
        <time>2022-06-02T18:25:55Z</time>
      </trkpt>
      <trkpt lat="43.60358" lon="1.43515">
        <ele>144</ele>
        <time>2022-06-02T18:26:01Z</time>
      </trkpt>
      <trkpt lat="43.6036" lon="1.43537">
        <ele>145</ele>
        <time>2022-06-02T18:26:05Z</time>
      </trkpt>
      <trkpt lat="43.60355" lon="1.43554">
        <ele>146</ele>
        <time>2022-06-02T18:26:08Z</time>
      </trkpt>
      <trkpt lat="43.60335" lon="1.43578">
        <ele>147</ele>
        <time>2022-06-02T18:26:14Z</time>
      </trkpt>
      <trkpt lat="43.60306" lon="1.43593">
        <ele>145</ele>
        <time>2022-06-02T18:26:22Z</time>
      </trkpt>
      <trkpt lat="43.60289" lon="1.43635">
        <ele>146</ele>
        <time>2022-06-02T18:26:30Z</time>
      </trkpt>
      <trkpt lat="43.60273" lon="1.43654">
        <ele>147</ele>
        <time>2022-06-02T18:26:35Z</time>
      </trkpt>
      <trkpt lat="43.60242" lon="1.43713">
        <ele>147</ele>
        <time>2022-06-02T18:26:47Z</time>
      </trkpt>
      <trkpt lat="43.60208" lon="1.43759">
        <ele>146</ele>
        <time>2022-06-02T18:26:58Z</time>
      </trkpt>
      <trkpt lat="43.6018" lon="1.43818">
        <ele>145</ele>
        <time>2022-06-02T18:27:10Z</time>
      </trkpt>
      <trkpt lat="43.60181" lon="1.43844">
        <ele>146</ele>
        <time>2022-06-02T18:27:14Z</time>
      </trkpt>
      <trkpt lat="43.60196" lon="1.43884">
        <ele>146</ele>
        <time>2022-06-02T18:27:22Z</time>
      </trkpt>
      <trkpt lat="43.60195" lon="1.43907">
        <ele>146</ele>
        <time>2022-06-02T18:27:26Z</time>
      </trkpt>
      <trkpt lat="43.6018" lon="1.43932">
        <ele>146</ele>
        <time>2022-06-02T18:27:31Z</time>
      </trkpt>
      <trkpt lat="43.60148" lon="1.43969">
        <ele>148</ele>
        <time>2022-06-02T18:27:41Z</time>
      </trkpt>
      <trkpt lat="43.60129" lon="1.43968">
        <ele>147</ele>
        <time>2022-06-02T18:27:46Z</time>
      </trkpt>
      <trkpt lat="43.60119" lon="1.43946">
        <ele>145</ele>
        <time>2022-06-02T18:27:50Z</time>
      </trkpt>
      <trkpt lat="43.60107" lon="1.43932">
        <ele>142</ele>
        <time>2022-06-02T18:27:54Z</time>
      </trkpt>
      <trkpt lat="43.60101" lon="1.43926">
        <ele>141</ele>
        <time>2022-06-02T18:27:55Z</time>
      </trkpt>
      <trkpt lat="43.60092" lon="1.43926">
        <ele>141</ele>
        <time>2022-06-02T18:27:57Z</time>
      </trkpt>
      <trkpt lat="43.60037" lon="1.43981">
        <ele>145</ele>
        <time>2022-06-02T18:28:13Z</time>
      </trkpt>
      <trkpt lat="43.60015" lon="1.44011">
        <ele>147</ele>
        <time>2022-06-02T18:28:21Z</time>
      </trkpt>
      <trkpt lat="43.59988" lon="1.44034">
        <ele>148</ele>
        <time>2022-06-02T18:28:28Z</time>
      </trkpt>
      <trkpt lat="43.59972" lon="1.44036">
        <ele>146</ele>
        <time>2022-06-02T18:28:32Z</time>
      </trkpt>
      <trkpt lat="43.59956" lon="1.44031">
        <ele>145</ele>
        <time>2022-06-02T18:28:36Z</time>
      </trkpt>
      <trkpt lat="43.59943" lon="1.43975">
        <ele>137</ele>
        <time>2022-06-02T18:28:46Z</time>
      </trkpt>
      <trkpt lat="43.59938" lon="1.43928">
        <ele>131</ele>
        <time>2022-06-02T18:28:54Z</time>
      </trkpt>
      <trkpt lat="43.59903" lon="1.43766">
        <ele>141</ele>
        <time>2022-06-02T18:29:22Z</time>
      </trkpt>
      <trkpt lat="43.59874" lon="1.43761">
        <ele>141</ele>
        <time>2022-06-02T18:29:29Z</time>
      </trkpt>
      <trkpt lat="43.59829" lon="1.43739">
        <ele>141</ele>
        <time>2022-06-02T18:29:40Z</time>
      </trkpt>
      <trkpt lat="43.59746" lon="1.43708">
        <ele>141</ele>
        <time>2022-06-02T18:30:00Z</time>
      </trkpt>
      <trkpt lat="43.59671" lon="1.43659">
        <ele>142</ele>
        <time>2022-06-02T18:30:20Z</time>
      </trkpt>
      <trkpt lat="43.59648" lon="1.43654">
        <ele>142</ele>
        <time>2022-06-02T18:30:25Z</time>
      </trkpt>
      <trkpt lat="43.59626" lon="1.43639">
        <ele>142</ele>
        <time>2022-06-02T18:30:31Z</time>
      </trkpt>
      <trkpt lat="43.59587" lon="1.4363">
        <ele>142</ele>
        <time>2022-06-02T18:30:40Z</time>
      </trkpt>
      <trkpt lat="43.59549" lon="1.4361">
        <ele>142</ele>
        <time>2022-06-02T18:30:49Z</time>
      </trkpt>
      <trkpt lat="43.59525" lon="1.43605">
        <ele>142</ele>
        <time>2022-06-02T18:30:55Z</time>
      </trkpt>
      <trkpt lat="43.5951" lon="1.43592">
        <ele>143</ele>
        <time>2022-06-02T18:30:59Z</time>
      </trkpt>
      <trkpt lat="43.595" lon="1.4359">
        <ele>143</ele>
        <time>2022-06-02T18:31:02Z</time>
      </trkpt>
      <trkpt lat="43.59462" lon="1.43568">
        <ele>143</ele>
        <time>2022-06-02T18:31:11Z</time>
      </trkpt>
      <trkpt lat="43.59369" lon="1.43535">
        <ele>144</ele>
        <time>2022-06-02T18:31:34Z</time>
      </trkpt>
      <trkpt lat="43.59352" lon="1.43524">
        <ele>144</ele>
        <time>2022-06-02T18:31:38Z</time>
      </trkpt>
      <trkpt lat="43.59293" lon="1.43538">
        <ele>142</ele>
        <time>2022-06-02T18:31:52Z</time>
      </trkpt>
      <trkpt lat="43.59233" lon="1.43513">
        <ele>144</ele>
        <time>2022-06-02T18:32:07Z</time>
      </trkpt>
      <trkpt lat="43.59131" lon="1.43434">
        <ele>148</ele>
        <time>2022-06-02T18:32:34Z</time>
      </trkpt>
      <trkpt lat="43.59084" lon="1.43386">
        <ele>145</ele>
        <time>2022-06-02T18:32:48Z</time>
      </trkpt>
      <trkpt lat="43.59027" lon="1.43341">
        <ele>144</ele>
        <time>2022-06-02T18:33:03Z</time>
      </trkpt>
      <trkpt lat="43.58946" lon="1.4327">
        <ele>145</ele>
        <time>2022-06-02T18:33:25Z</time>
      </trkpt>
      <trkpt lat="43.58929" lon="1.4325">
        <ele>146</ele>
        <time>2022-06-02T18:33:31Z</time>
      </trkpt>
      <trkpt lat="43.58806" lon="1.43145">
        <ele>143</ele>
        <time>2022-06-02T18:34:04Z</time>
      </trkpt>
      <trkpt lat="43.58743" lon="1.43102">
        <ele>142</ele>
        <time>2022-06-02T18:34:21Z</time>
      </trkpt>
      <trkpt lat="43.58711" lon="1.43075">
        <ele>143</ele>
        <time>2022-06-02T18:34:30Z</time>
      </trkpt>
      <trkpt lat="43.58652" lon="1.43041">
        <ele>143</ele>
        <time>2022-06-02T18:34:44Z</time>
      </trkpt>
      <trkpt lat="43.58604" lon="1.43006">
        <ele>143</ele>
        <time>2022-06-02T18:34:57Z</time>
      </trkpt>
      <trkpt lat="43.58577" lon="1.4298">
        <ele>143</ele>
        <time>2022-06-02T18:35:05Z</time>
      </trkpt>
      <trkpt lat="43.58549" lon="1.42964">
        <ele>143</ele>
        <time>2022-06-02T18:35:12Z</time>
      </trkpt>
      <trkpt lat="43.58495" lon="1.42924">
        <ele>142</ele>
        <time>2022-06-02T18:35:26Z</time>
      </trkpt>
      <trkpt lat="43.58423" lon="1.42893">
        <ele>149</ele>
        <time>2022-06-02T18:35:44Z</time>
      </trkpt>
      <trkpt lat="43.58383" lon="1.42883">
        <ele>149</ele>
        <time>2022-06-02T18:35:53Z</time>
      </trkpt>
      <trkpt lat="43.58367" lon="1.42872">
        <ele>149</ele>
        <time>2022-06-02T18:35:57Z</time>
      </trkpt>
      <trkpt lat="43.58357" lon="1.42871">
        <ele>149</ele>
        <time>2022-06-02T18:36:00Z</time>
      </trkpt>
      <trkpt lat="43.58339" lon="1.42861">
        <ele>149</ele>
        <time>2022-06-02T18:36:04Z</time>
      </trkpt>
      <trkpt lat="43.58291" lon="1.4285">
        <ele>150</ele>
        <time>2022-06-02T18:36:16Z</time>
      </trkpt>
      <trkpt lat="43.58237" lon="1.42818">
        <ele>150</ele>
        <time>2022-06-02T18:36:29Z</time>
      </trkpt>
      <trkpt lat="43.58211" lon="1.42809">
        <ele>148</ele>
        <time>2022-06-02T18:36:36Z</time>
      </trkpt>
      <trkpt lat="43.58201" lon="1.42812">
        <ele>147</ele>
        <time>2022-06-02T18:36:38Z</time>
      </trkpt>
      <trkpt lat="43.58166" lon="1.42795">
        <ele>145</ele>
        <time>2022-06-02T18:36:47Z</time>
      </trkpt>
      <trkpt lat="43.58105" lon="1.42778">
        <ele>147</ele>
        <time>2022-06-02T18:37:01Z</time>
      </trkpt>
      <trkpt lat="43.58043" lon="1.42755">
        <ele>146</ele>
        <time>2022-06-02T18:37:16Z</time>
      </trkpt>
      <trkpt lat="43.57886" lon="1.42742">
        <ele>142</ele>
        <time>2022-06-02T18:37:53Z</time>
      </trkpt>
      <trkpt lat="43.57874" lon="1.42746">
        <ele>142</ele>
        <time>2022-06-02T18:37:56Z</time>
      </trkpt>
      <trkpt lat="43.57812" lon="1.42745">
        <ele>141</ele>
        <time>2022-06-02T18:38:10Z</time>
      </trkpt>
      <trkpt lat="43.57772" lon="1.42751">
        <ele>142</ele>
        <time>2022-06-02T18:38:20Z</time>
      </trkpt>
      <trkpt lat="43.57753" lon="1.4275">
        <ele>142</ele>
        <time>2022-06-02T18:38:24Z</time>
      </trkpt>
      <trkpt lat="43.57703" lon="1.4276">
        <ele>146</ele>
        <time>2022-06-02T18:38:36Z</time>
      </trkpt>
      <trkpt lat="43.5761" lon="1.42757">
        <ele>150</ele>
        <time>2022-06-02T18:38:58Z</time>
      </trkpt>
      <trkpt lat="43.57538" lon="1.42783">
        <ele>148</ele>
        <time>2022-06-02T18:39:15Z</time>
      </trkpt>
      <trkpt lat="43.57467" lon="1.42803">
        <ele>147</ele>
        <time>2022-06-02T18:39:32Z</time>
      </trkpt>
      <trkpt lat="43.57438" lon="1.42814">
        <ele>147</ele>
        <time>2022-06-02T18:39:39Z</time>
      </trkpt>
      <trkpt lat="43.57373" lon="1.42848">
        <ele>146</ele>
        <time>2022-06-02T18:39:55Z</time>
      </trkpt>
      <trkpt lat="43.57333" lon="1.42861">
        <ele>144</ele>
        <time>2022-06-02T18:40:05Z</time>
      </trkpt>
      <trkpt lat="43.57276" lon="1.42876">
        <ele>144</ele>
        <time>2022-06-02T18:40:18Z</time>
      </trkpt>
      <trkpt lat="43.57234" lon="1.42875">
        <ele>144</ele>
        <time>2022-06-02T18:40:28Z</time>
      </trkpt>
      <trkpt lat="43.57198" lon="1.42884">
        <ele>143</ele>
        <time>2022-06-02T18:40:37Z</time>
      </trkpt>
      <trkpt lat="43.57134" lon="1.42925">
        <ele>144</ele>
        <time>2022-06-02T18:40:53Z</time>
      </trkpt>
      <trkpt lat="43.57106" lon="1.42939">
        <ele>143</ele>
        <time>2022-06-02T18:41:00Z</time>
      </trkpt>
      <trkpt lat="43.57094" lon="1.42939">
        <ele>144</ele>
        <time>2022-06-02T18:41:03Z</time>
      </trkpt>
      <trkpt lat="43.57086" lon="1.42955">
        <ele>143</ele>
        <time>2022-06-02T18:41:06Z</time>
      </trkpt>
      <trkpt lat="43.57071" lon="1.42961">
        <ele>142</ele>
        <time>2022-06-02T18:41:10Z</time>
      </trkpt>
      <trkpt lat="43.57017" lon="1.42969">
        <ele>142</ele>
        <time>2022-06-02T18:41:23Z</time>
      </trkpt>
      <trkpt lat="43.56973" lon="1.42967">
        <ele>141</ele>
        <time>2022-06-02T18:41:33Z</time>
      </trkpt>
      <trkpt lat="43.56933" lon="1.42978">
        <ele>141</ele>
        <time>2022-06-02T18:41:42Z</time>
      </trkpt>
      <trkpt lat="43.56872" lon="1.42973">
        <ele>142</ele>
        <time>2022-06-02T18:41:57Z</time>
      </trkpt>
      <trkpt lat="43.56793" lon="1.42946">
        <ele>144</ele>
        <time>2022-06-02T18:42:16Z</time>
      </trkpt>
      <trkpt lat="43.5673" lon="1.42908">
        <ele>145</ele>
        <time>2022-06-02T18:42:32Z</time>
      </trkpt>
      <trkpt lat="43.56707" lon="1.42891">
        <ele>145</ele>
        <time>2022-06-02T18:42:38Z</time>
      </trkpt>
      <trkpt lat="43.56673" lon="1.42857">
        <ele>146</ele>
        <time>2022-06-02T18:42:48Z</time>
      </trkpt>
      <trkpt lat="43.56599" lon="1.42805">
        <ele>149</ele>
        <time>2022-06-02T18:43:07Z</time>
      </trkpt>
      <trkpt lat="43.56505" lon="1.42765">
        <ele>147</ele>
        <time>2022-06-02T18:43:30Z</time>
      </trkpt>
      <trkpt lat="43.56451" lon="1.42755">
        <ele>145</ele>
        <time>2022-06-02T18:43:43Z</time>
      </trkpt>
      <trkpt lat="43.56399" lon="1.42755">
        <ele>143</ele>
        <time>2022-06-02T18:43:55Z</time>
      </trkpt>
      <trkpt lat="43.56333" lon="1.42762">
        <ele>144</ele>
        <time>2022-06-02T18:44:10Z</time>
      </trkpt>
      <trkpt lat="43.56226" lon="1.42798">
        <ele>145</ele>
        <time>2022-06-02T18:44:36Z</time>
      </trkpt>
      <trkpt lat="43.56168" lon="1.42838">
        <ele>147</ele>
        <time>2022-06-02T18:44:51Z</time>
      </trkpt>
      <trkpt lat="43.56102" lon="1.42897">
        <ele>146</ele>
        <time>2022-06-02T18:45:10Z</time>
      </trkpt>
      <trkpt lat="43.55979" lon="1.43056">
        <ele>148</ele>
        <time>2022-06-02T18:45:49Z</time>
      </trkpt>
      <trkpt lat="43.55923" lon="1.43103">
        <ele>145</ele>
        <time>2022-06-02T18:46:04Z</time>
      </trkpt>
      <trkpt lat="43.5585" lon="1.4315">
        <ele>145</ele>
        <time>2022-06-02T18:46:23Z</time>
      </trkpt>
      <trkpt lat="43.55792" lon="1.43173">
        <ele>145</ele>
        <time>2022-06-02T18:46:37Z</time>
      </trkpt>
      <trkpt lat="43.55744" lon="1.43185">
        <ele>146</ele>
        <time>2022-06-02T18:46:49Z</time>
      </trkpt>
      <trkpt lat="43.55737" lon="1.43183">
        <ele>146</ele>
        <time>2022-06-02T18:46:50Z</time>
      </trkpt>
      <trkpt lat="43.55725" lon="1.43168">
        <ele>146</ele>
        <time>2022-06-02T18:46:54Z</time>
      </trkpt>
      <trkpt lat="43.55715" lon="1.43164">
        <ele>147</ele>
        <time>2022-06-02T18:46:56Z</time>
      </trkpt>
      <trkpt lat="43.55654" lon="1.43168">
        <ele>149</ele>
        <time>2022-06-02T18:47:11Z</time>
      </trkpt>
      <trkpt lat="43.55599" lon="1.43155">
        <ele>149</ele>
        <time>2022-06-02T18:47:24Z</time>
      </trkpt>
      <trkpt lat="43.55508" lon="1.43144">
        <ele>150</ele>
        <time>2022-06-02T18:47:45Z</time>
      </trkpt>
      <trkpt lat="43.55499" lon="1.43142">
        <ele>150</ele>
        <time>2022-06-02T18:47:47Z</time>
      </trkpt>
      <trkpt lat="43.55493" lon="1.43135">
        <ele>150</ele>
        <time>2022-06-02T18:47:49Z</time>
      </trkpt>
      <trkpt lat="43.55466" lon="1.43127">
        <ele>150</ele>
        <time>2022-06-02T18:47:55Z</time>
      </trkpt>
      <trkpt lat="43.55402" lon="1.43129">
        <ele>149</ele>
        <time>2022-06-02T18:48:10Z</time>
      </trkpt>
      <trkpt lat="43.55339" lon="1.43116">
        <ele>149</ele>
        <time>2022-06-02T18:48:25Z</time>
      </trkpt>
      <trkpt lat="43.55321" lon="1.43093">
        <ele>150</ele>
        <time>2022-06-02T18:48:31Z</time>
      </trkpt>
      <trkpt lat="43.55299" lon="1.43039">
        <ele>151</ele>
        <time>2022-06-02T18:48:42Z</time>
      </trkpt>
      <trkpt lat="43.55276" lon="1.43027">
        <ele>151</ele>
        <time>2022-06-02T18:48:47Z</time>
      </trkpt>
      <trkpt lat="43.55261" lon="1.43028">
        <ele>151</ele>
        <time>2022-06-02T18:48:51Z</time>
      </trkpt>
      <trkpt lat="43.55204" lon="1.43014">
        <ele>152</ele>
        <time>2022-06-02T18:49:04Z</time>
      </trkpt>
      <trkpt lat="43.55174" lon="1.43013">
        <ele>153</ele>
        <time>2022-06-02T18:49:11Z</time>
      </trkpt>
      <trkpt lat="43.55113" lon="1.43">
        <ele>151</ele>
        <time>2022-06-02T18:49:26Z</time>
      </trkpt>
      <trkpt lat="43.55051" lon="1.42992">
        <ele>149</ele>
        <time>2022-06-02T18:49:40Z</time>
      </trkpt>
      <trkpt lat="43.55039" lon="1.42993">
        <ele>149</ele>
        <time>2022-06-02T18:49:43Z</time>
      </trkpt>
      <trkpt lat="43.55005" lon="1.43007">
        <ele>148</ele>
        <time>2022-06-02T18:49:51Z</time>
      </trkpt>
      <trkpt lat="43.54943" lon="1.43013">
        <ele>147</ele>
        <time>2022-06-02T18:50:06Z</time>
      </trkpt>
      <trkpt lat="43.54916" lon="1.43026">
        <ele>147</ele>
        <time>2022-06-02T18:50:13Z</time>
      </trkpt>
      <trkpt lat="43.54906" lon="1.43027">
        <ele>147</ele>
        <time>2022-06-02T18:50:15Z</time>
      </trkpt>
      <trkpt lat="43.54885" lon="1.43009">
        <ele>146</ele>
        <time>2022-06-02T18:50:21Z</time>
      </trkpt>
      <trkpt lat="43.54852" lon="1.42964">
        <ele>145</ele>
        <time>2022-06-02T18:50:32Z</time>
      </trkpt>
      <trkpt lat="43.54799" lon="1.42911">
        <ele>146</ele>
        <time>2022-06-02T18:50:47Z</time>
      </trkpt>
      <trkpt lat="43.54783" lon="1.42886">
        <ele>146</ele>
        <time>2022-06-02T18:50:52Z</time>
      </trkpt>
      <trkpt lat="43.54772" lon="1.42856">
        <ele>145</ele>
        <time>2022-06-02T18:50:58Z</time>
      </trkpt>
      <trkpt lat="43.5477" lon="1.42862">
        <ele>146</ele>
        <time>2022-06-02T18:50:59Z</time>
      </trkpt>
      <trkpt lat="43.54764" lon="1.42861">
        <ele>145</ele>
        <time>2022-06-02T18:51:01Z</time>
      </trkpt>
      <trkpt lat="43.54761" lon="1.42837">
        <ele>145</ele>
        <time>2022-06-02T18:51:05Z</time>
      </trkpt>
      <trkpt lat="43.54763" lon="1.42746">
        <ele>144</ele>
        <time>2022-06-02T18:51:20Z</time>
      </trkpt>
      <trkpt lat="43.54773" lon="1.42668">
        <ele>145</ele>
        <time>2022-06-02T18:51:34Z</time>
      </trkpt>
      <trkpt lat="43.54787" lon="1.42416">
        <ele>146</ele>
        <time>2022-06-02T18:52:16Z</time>
      </trkpt>
      <trkpt lat="43.54796" lon="1.42342">
        <ele>147</ele>
        <time>2022-06-02T18:52:29Z</time>
      </trkpt>
      <trkpt lat="43.54797" lon="1.4227">
        <ele>148</ele>
        <time>2022-06-02T18:52:41Z</time>
      </trkpt>
      <trkpt lat="43.54807" lon="1.42216">
        <ele>149</ele>
        <time>2022-06-02T18:52:51Z</time>
      </trkpt>
      <trkpt lat="43.54846" lon="1.42123">
        <ele>149</ele>
        <time>2022-06-02T18:53:09Z</time>
      </trkpt>
      <trkpt lat="43.54857" lon="1.42086">
        <ele>148</ele>
        <time>2022-06-02T18:53:16Z</time>
      </trkpt>
      <trkpt lat="43.54856" lon="1.42061">
        <ele>148</ele>
        <time>2022-06-02T18:53:20Z</time>
      </trkpt>
      <trkpt lat="43.54838" lon="1.4201">
        <ele>146</ele>
        <time>2022-06-02T18:53:29Z</time>
      </trkpt>
      <trkpt lat="43.54811" lon="1.41993">
        <ele>147</ele>
        <time>2022-06-02T18:53:36Z</time>
      </trkpt>
      <trkpt lat="43.54786" lon="1.41983">
        <ele>148</ele>
        <time>2022-06-02T18:53:43Z</time>
      </trkpt>
      <trkpt lat="43.54758" lon="1.41959">
        <ele>149</ele>
        <time>2022-06-02T18:53:50Z</time>
      </trkpt>
      <trkpt lat="43.54659" lon="1.41912">
        <ele>149</ele>
        <time>2022-06-02T18:54:15Z</time>
      </trkpt>
      <trkpt lat="43.54619" lon="1.41885">
        <ele>150</ele>
        <time>2022-06-02T18:54:25Z</time>
      </trkpt>
      <trkpt lat="43.54569" lon="1.41859">
        <ele>149</ele>
        <time>2022-06-02T18:54:38Z</time>
      </trkpt>
      <trkpt lat="43.54263" lon="1.41598">
        <ele>150</ele>
        <time>2022-06-02T18:56:02Z</time>
      </trkpt>
      <trkpt lat="43.54238" lon="1.41584">
        <ele>149</ele>
        <time>2022-06-02T18:56:08Z</time>
      </trkpt>
      <trkpt lat="43.54198" lon="1.41542">
        <ele>150</ele>
        <time>2022-06-02T18:56:20Z</time>
      </trkpt>
      <trkpt lat="43.54138" lon="1.41491">
        <ele>150</ele>
        <time>2022-06-02T18:56:36Z</time>
      </trkpt>
      <trkpt lat="43.54104" lon="1.41465">
        <ele>150</ele>
        <time>2022-06-02T18:56:45Z</time>
      </trkpt>
      <trkpt lat="43.54071" lon="1.41451">
        <ele>150</ele>
        <time>2022-06-02T18:56:53Z</time>
      </trkpt>
      <trkpt lat="43.54022" lon="1.41401">
        <ele>151</ele>
        <time>2022-06-02T18:57:07Z</time>
      </trkpt>
      <trkpt lat="43.54013" lon="1.41401">
        <ele>152</ele>
        <time>2022-06-02T18:57:10Z</time>
      </trkpt>
      <trkpt lat="43.5401" lon="1.4141">
        <ele>152</ele>
        <time>2022-06-02T18:57:11Z</time>
      </trkpt>
      <trkpt lat="43.53995" lon="1.41427">
        <ele>152</ele>
        <time>2022-06-02T18:57:16Z</time>
      </trkpt>
      <trkpt lat="43.53974" lon="1.41434">
        <ele>152</ele>
        <time>2022-06-02T18:57:21Z</time>
      </trkpt>
      <trkpt lat="43.53944" lon="1.41427">
        <ele>151</ele>
        <time>2022-06-02T18:57:28Z</time>
      </trkpt>
      <trkpt lat="43.53918" lon="1.41415">
        <ele>151</ele>
        <time>2022-06-02T18:57:34Z</time>
      </trkpt>
      <trkpt lat="43.53776" lon="1.41422">
        <ele>149</ele>
        <time>2022-06-02T18:58:07Z</time>
      </trkpt>
      <trkpt lat="43.53689" lon="1.41418">
        <ele>146</ele>
        <time>2022-06-02T18:58:28Z</time>
      </trkpt>
      <trkpt lat="43.53675" lon="1.41422">
        <ele>146</ele>
        <time>2022-06-02T18:58:31Z</time>
      </trkpt>
      <trkpt lat="43.5361" lon="1.41424">
        <ele>146</ele>
        <time>2022-06-02T18:58:46Z</time>
      </trkpt>
      <trkpt lat="43.53595" lon="1.41429">
        <ele>146</ele>
        <time>2022-06-02T18:58:50Z</time>
      </trkpt>
      <trkpt lat="43.53569" lon="1.4143">
        <ele>147</ele>
        <time>2022-06-02T18:58:56Z</time>
      </trkpt>
      <trkpt lat="43.53534" lon="1.41449">
        <ele>147</ele>
        <time>2022-06-02T18:59:05Z</time>
      </trkpt>
      <trkpt lat="43.5348" lon="1.41494">
        <ele>147</ele>
        <time>2022-06-02T18:59:20Z</time>
      </trkpt>
      <trkpt lat="43.53459" lon="1.41519">
        <ele>147</ele>
        <time>2022-06-02T18:59:26Z</time>
      </trkpt>
      <trkpt lat="43.53363" lon="1.41599">
        <ele>147</ele>
        <time>2022-06-02T18:59:52Z</time>
      </trkpt>
      <trkpt lat="43.53329" lon="1.41617">
        <ele>146</ele>
        <time>2022-06-02T19:00:01Z</time>
      </trkpt>
      <trkpt lat="43.53305" lon="1.41617">
        <ele>147</ele>
        <time>2022-06-02T19:00:06Z</time>
      </trkpt>
      <trkpt lat="43.53268" lon="1.41606">
        <ele>148</ele>
        <time>2022-06-02T19:00:15Z</time>
      </trkpt>
      <trkpt lat="43.53253" lon="1.41597">
        <ele>149</ele>
        <time>2022-06-02T19:00:19Z</time>
      </trkpt>
      <trkpt lat="43.53174" lon="1.41508">
        <ele>150</ele>
        <time>2022-06-02T19:00:43Z</time>
      </trkpt>
      <trkpt lat="43.53136" lon="1.41483">
        <ele>150</ele>
        <time>2022-06-02T19:00:53Z</time>
      </trkpt>
      <trkpt lat="43.53105" lon="1.41456">
        <ele>150</ele>
        <time>2022-06-02T19:01:01Z</time>
      </trkpt>
      <trkpt lat="43.53074" lon="1.41443">
        <ele>150</ele>
        <time>2022-06-02T19:01:09Z</time>
      </trkpt>
      <trkpt lat="43.53046" lon="1.41422">
        <ele>150</ele>
        <time>2022-06-02T19:01:16Z</time>
      </trkpt>
      <trkpt lat="43.52985" lon="1.41317">
        <ele>151</ele>
        <time>2022-06-02T19:01:39Z</time>
      </trkpt>
      <trkpt lat="43.52974" lon="1.41305">
        <ele>151</ele>
        <time>2022-06-02T19:01:42Z</time>
      </trkpt>
      <trkpt lat="43.52933" lon="1.41299">
        <ele>151</ele>
        <time>2022-06-02T19:01:52Z</time>
      </trkpt>
      <trkpt lat="43.52882" lon="1.41301">
        <ele>151</ele>
        <time>2022-06-02T19:02:04Z</time>
      </trkpt>
      <trkpt lat="43.52864" lon="1.41307">
        <ele>151</ele>
        <time>2022-06-02T19:02:08Z</time>
      </trkpt>
      <trkpt lat="43.52831" lon="1.41337">
        <ele>151</ele>
        <time>2022-06-02T19:02:17Z</time>
      </trkpt>
      <trkpt lat="43.52798" lon="1.41375">
        <ele>152</ele>
        <time>2022-06-02T19:02:27Z</time>
      </trkpt>
      <trkpt lat="43.52784" lon="1.4138">
        <ele>153</ele>
        <time>2022-06-02T19:02:31Z</time>
      </trkpt>
      <trkpt lat="43.52765" lon="1.41376">
        <ele>153</ele>
        <time>2022-06-02T19:02:35Z</time>
      </trkpt>
      <trkpt lat="43.52753" lon="1.41366">
        <ele>153</ele>
        <time>2022-06-02T19:02:39Z</time>
      </trkpt>
      <trkpt lat="43.52663" lon="1.41324">
        <ele>151</ele>
        <time>2022-06-02T19:03:01Z</time>
      </trkpt>
      <trkpt lat="43.52642" lon="1.41309">
        <ele>151</ele>
        <time>2022-06-02T19:03:06Z</time>
      </trkpt>
      <trkpt lat="43.52628" lon="1.41327">
        <ele>150</ele>
        <time>2022-06-02T19:03:11Z</time>
      </trkpt>
      <trkpt lat="43.52623" lon="1.41359">
        <ele>150</ele>
        <time>2022-06-02T19:03:16Z</time>
      </trkpt>
      <trkpt lat="43.52625" lon="1.41414">
        <ele>150</ele>
        <time>2022-06-02T19:03:26Z</time>
      </trkpt>
      <trkpt lat="43.52636" lon="1.41479">
        <ele>148</ele>
        <time>2022-06-02T19:03:37Z</time>
      </trkpt>
      <trkpt lat="43.52629" lon="1.41493">
        <ele>147</ele>
        <time>2022-06-02T19:03:40Z</time>
      </trkpt>
      <trkpt lat="43.52621" lon="1.41492">
        <ele>146</ele>
        <time>2022-06-02T19:03:42Z</time>
      </trkpt>
      <trkpt lat="43.52542" lon="1.41404">
        <ele>147</ele>
        <time>2022-06-02T19:04:05Z</time>
      </trkpt>
      <trkpt lat="43.52388" lon="1.41277">
        <ele>148</ele>
        <time>2022-06-02T19:04:47Z</time>
      </trkpt>
      <trkpt lat="43.5233" lon="1.41244">
        <ele>147</ele>
        <time>2022-06-02T19:05:02Z</time>
      </trkpt>
      <trkpt lat="43.52298" lon="1.41199">
        <ele>148</ele>
        <time>2022-06-02T19:05:13Z</time>
      </trkpt>
      <trkpt lat="43.52278" lon="1.41186">
        <ele>147</ele>
        <time>2022-06-02T19:05:18Z</time>
      </trkpt>
      <trkpt lat="43.5227" lon="1.41176">
        <ele>147</ele>
        <time>2022-06-02T19:05:20Z</time>
      </trkpt>
      <trkpt lat="43.52246" lon="1.41166">
        <ele>146</ele>
        <time>2022-06-02T19:05:26Z</time>
      </trkpt>
      <trkpt lat="43.52231" lon="1.41153">
        <ele>146</ele>
        <time>2022-06-02T19:05:30Z</time>
      </trkpt>
      <trkpt lat="43.52202" lon="1.41145">
        <ele>145</ele>
        <time>2022-06-02T19:05:37Z</time>
      </trkpt>
      <trkpt lat="43.52089" lon="1.4106">
        <ele>145</ele>
        <time>2022-06-02T19:06:07Z</time>
      </trkpt>
      <trkpt lat="43.52055" lon="1.41022">
        <ele>147</ele>
        <time>2022-06-02T19:06:17Z</time>
      </trkpt>
      <trkpt lat="43.5201" lon="1.40987">
        <ele>147</ele>
        <time>2022-06-02T19:06:29Z</time>
      </trkpt>
      <trkpt lat="43.52001" lon="1.40976">
        <ele>147</ele>
        <time>2022-06-02T19:06:32Z</time>
      </trkpt>
      <trkpt lat="43.51982" lon="1.40933">
        <ele>150</ele>
        <time>2022-06-02T19:06:41Z</time>
      </trkpt>
      <trkpt lat="43.51955" lon="1.40849">
        <ele>149</ele>
        <time>2022-06-02T19:06:56Z</time>
      </trkpt>
      <trkpt lat="43.51942" lon="1.40827">
        <ele>149</ele>
        <time>2022-06-02T19:07:01Z</time>
      </trkpt>
      <trkpt lat="43.51916" lon="1.40811">
        <ele>148</ele>
        <time>2022-06-02T19:07:08Z</time>
      </trkpt>
      <trkpt lat="43.51916" lon="1.40802">
        <ele>148</ele>
        <time>2022-06-02T19:07:09Z</time>
      </trkpt>
      <trkpt lat="43.51921" lon="1.40794">
        <ele>149</ele>
        <time>2022-06-02T19:07:11Z</time>
      </trkpt>
      <trkpt lat="43.52027" lon="1.40672">
        <ele>152</ele>
        <time>2022-06-02T19:07:43Z</time>
      </trkpt>
      <trkpt lat="43.52075" lon="1.40597">
        <ele>151</ele>
        <time>2022-06-02T19:08:00Z</time>
      </trkpt>
      <trkpt lat="43.52087" lon="1.40611">
        <ele>151</ele>
        <time>2022-06-02T19:08:04Z</time>
      </trkpt>
      <trkpt lat="43.5212" lon="1.4068">
        <ele>154</ele>
        <time>2022-06-02T19:08:18Z</time>
      </trkpt>
      <trkpt lat="43.52136" lon="1.40702">
        <ele>154</ele>
        <time>2022-06-02T19:08:23Z</time>
      </trkpt>
      <trkpt lat="43.52179" lon="1.40731">
        <ele>154</ele>
        <time>2022-06-02T19:08:34Z</time>
      </trkpt>
      <trkpt lat="43.52205" lon="1.40758">
        <ele>153</ele>
        <time>2022-06-02T19:08:42Z</time>
      </trkpt>
      <trkpt lat="43.52238" lon="1.40764">
        <ele>154</ele>
        <time>2022-06-02T19:08:50Z</time>
      </trkpt>
      <trkpt lat="43.5225" lon="1.40781">
        <ele>154</ele>
        <time>2022-06-02T19:08:54Z</time>
      </trkpt>
      <trkpt lat="43.5226" lon="1.40788">
        <ele>154</ele>
        <time>2022-06-02T19:08:56Z</time>
      </trkpt>
      <trkpt lat="43.52306" lon="1.40767">
        <ele>153</ele>
        <time>2022-06-02T19:09:08Z</time>
      </trkpt>
      <trkpt lat="43.52348" lon="1.40716">
        <ele>152</ele>
        <time>2022-06-02T19:09:21Z</time>
      </trkpt>
      <trkpt lat="43.5239" lon="1.4068">
        <ele>152</ele>
        <time>2022-06-02T19:09:32Z</time>
      </trkpt>
      <trkpt lat="43.52406" lon="1.40627">
        <ele>152</ele>
        <time>2022-06-02T19:09:42Z</time>
      </trkpt>
      <trkpt lat="43.52418" lon="1.40549">
        <ele>152</ele>
        <time>2022-06-02T19:09:56Z</time>
      </trkpt>
      <trkpt lat="43.52445" lon="1.40454">
        <ele>153</ele>
        <time>2022-06-02T19:10:13Z</time>
      </trkpt>
      <trkpt lat="43.52481" lon="1.40371">
        <ele>154</ele>
        <time>2022-06-02T19:10:29Z</time>
      </trkpt>
      <trkpt lat="43.52523" lon="1.40287">
        <ele>154</ele>
        <time>2022-06-02T19:10:47Z</time>
      </trkpt>
      <trkpt lat="43.52542" lon="1.40237">
        <ele>153</ele>
        <time>2022-06-02T19:10:56Z</time>
      </trkpt>
      <trkpt lat="43.52567" lon="1.40191">
        <ele>153</ele>
        <time>2022-06-02T19:11:06Z</time>
      </trkpt>
      <trkpt lat="43.52602" lon="1.40161">
        <ele>152</ele>
        <time>2022-06-02T19:11:15Z</time>
      </trkpt>
      <trkpt lat="43.52616" lon="1.40132">
        <ele>151</ele>
        <time>2022-06-02T19:11:21Z</time>
      </trkpt>
      <trkpt lat="43.52633" lon="1.40113">
        <ele>151</ele>
        <time>2022-06-02T19:11:26Z</time>
      </trkpt>
      <trkpt lat="43.52652" lon="1.40081">
        <ele>150</ele>
        <time>2022-06-02T19:11:33Z</time>
      </trkpt>
      <trkpt lat="43.52665" lon="1.40048">
        <ele>151</ele>
        <time>2022-06-02T19:11:40Z</time>
      </trkpt>
      <trkpt lat="43.5275" lon="1.39939">
        <ele>153</ele>
        <time>2022-06-02T19:12:07Z</time>
      </trkpt>
      <trkpt lat="43.52791" lon="1.39871">
        <ele>154</ele>
        <time>2022-06-02T19:12:22Z</time>
      </trkpt>
      <trkpt lat="43.52821" lon="1.39831">
        <ele>154</ele>
        <time>2022-06-02T19:12:32Z</time>
      </trkpt>
      <trkpt lat="43.52886" lon="1.39717">
        <ele>152</ele>
        <time>2022-06-02T19:12:56Z</time>
      </trkpt>
      <trkpt lat="43.5296" lon="1.39617">
        <ele>150</ele>
        <time>2022-06-02T19:13:20Z</time>
      </trkpt>
      <trkpt lat="43.52997" lon="1.39555">
        <ele>152</ele>
        <time>2022-06-02T19:13:34Z</time>
      </trkpt>
      <trkpt lat="43.53018" lon="1.39508">
        <ele>153</ele>
        <time>2022-06-02T19:13:43Z</time>
      </trkpt>
      <trkpt lat="43.53026" lon="1.39479">
        <ele>153</ele>
        <time>2022-06-02T19:13:49Z</time>
      </trkpt>
      <trkpt lat="43.5304" lon="1.39352">
        <ele>151</ele>
        <time>2022-06-02T19:14:10Z</time>
      </trkpt>
      <trkpt lat="43.53061" lon="1.39254">
        <ele>152</ele>
        <time>2022-06-02T19:14:28Z</time>
      </trkpt>
      <trkpt lat="43.5309" lon="1.39188">
        <ele>153</ele>
        <time>2022-06-02T19:14:41Z</time>
      </trkpt>
      <trkpt lat="43.53112" lon="1.39149">
        <ele>153</ele>
        <time>2022-06-02T19:14:49Z</time>
      </trkpt>
      <trkpt lat="43.53119" lon="1.39125">
        <ele>154</ele>
        <time>2022-06-02T19:14:53Z</time>
      </trkpt>
      <trkpt lat="43.5315" lon="1.39058">
        <ele>156</ele>
        <time>2022-06-02T19:15:07Z</time>
      </trkpt>
      <trkpt lat="43.53171" lon="1.39025">
        <ele>156</ele>
        <time>2022-06-02T19:15:14Z</time>
      </trkpt>
      <trkpt lat="43.53185" lon="1.38967">
        <ele>155</ele>
        <time>2022-06-02T19:15:25Z</time>
      </trkpt>
      <trkpt lat="43.53202" lon="1.38934">
        <ele>154</ele>
        <time>2022-06-02T19:15:32Z</time>
      </trkpt>
      <trkpt lat="43.53241" lon="1.38822">
        <ele>154</ele>
        <time>2022-06-02T19:15:53Z</time>
      </trkpt>
      <trkpt lat="43.53273" lon="1.38761">
        <ele>153</ele>
        <time>2022-06-02T19:16:05Z</time>
      </trkpt>
      <trkpt lat="43.53281" lon="1.38727">
        <ele>153</ele>
        <time>2022-06-02T19:16:11Z</time>
      </trkpt>
      <trkpt lat="43.53275" lon="1.38696">
        <ele>153</ele>
        <time>2022-06-02T19:16:17Z</time>
      </trkpt>
      <trkpt lat="43.53278" lon="1.38682">
        <ele>153</ele>
        <time>2022-06-02T19:16:19Z</time>
      </trkpt>
      <trkpt lat="43.53289" lon="1.38673">
        <ele>153</ele>
        <time>2022-06-02T19:16:22Z</time>
      </trkpt>
      <trkpt lat="43.53307" lon="1.38676">
        <ele>153</ele>
        <time>2022-06-02T19:16:27Z</time>
      </trkpt>
      <trkpt lat="43.53317" lon="1.38665">
        <ele>152</ele>
        <time>2022-06-02T19:16:30Z</time>
      </trkpt>
      <trkpt lat="43.53331" lon="1.3864">
        <ele>152</ele>
        <time>2022-06-02T19:16:35Z</time>
      </trkpt>
      <trkpt lat="43.53358" lon="1.38565">
        <ele>153</ele>
        <time>2022-06-02T19:16:49Z</time>
      </trkpt>
      <trkpt lat="43.53414" lon="1.38328">
        <ele>152</ele>
        <time>2022-06-02T19:17:31Z</time>
      </trkpt>
      <trkpt lat="43.53426" lon="1.38255">
        <ele>152</ele>
        <time>2022-06-02T19:17:44Z</time>
      </trkpt>
      <trkpt lat="43.53439" lon="1.3821">
        <ele>151</ele>
        <time>2022-06-02T19:17:52Z</time>
      </trkpt>
      <trkpt lat="43.5349" lon="1.3792">
        <ele>153</ele>
        <time>2022-06-02T19:18:43Z</time>
      </trkpt>
      <trkpt lat="43.53508" lon="1.37852">
        <ele>153</ele>
        <time>2022-06-02T19:18:55Z</time>
      </trkpt>
      <trkpt lat="43.53513" lon="1.37808">
        <ele>154</ele>
        <time>2022-06-02T19:19:02Z</time>
      </trkpt>
      <trkpt lat="43.53548" lon="1.37635">
        <ele>155</ele>
        <time>2022-06-02T19:19:33Z</time>
      </trkpt>
      <trkpt lat="43.53575" lon="1.37593">
        <ele>154</ele>
        <time>2022-06-02T19:19:42Z</time>
      </trkpt>
      <trkpt lat="43.53608" lon="1.37563">
        <ele>154</ele>
        <time>2022-06-02T19:19:52Z</time>
      </trkpt>
      <trkpt lat="43.53698" lon="1.37518">
        <ele>152</ele>
        <time>2022-06-02T19:20:14Z</time>
      </trkpt>
      <trkpt lat="43.53713" lon="1.37507">
        <ele>153</ele>
        <time>2022-06-02T19:20:18Z</time>
      </trkpt>
      <trkpt lat="43.53747" lon="1.37496">
        <ele>153</ele>
        <time>2022-06-02T19:20:26Z</time>
      </trkpt>
      <trkpt lat="43.53825" lon="1.3746">
        <ele>153</ele>
        <time>2022-06-02T19:20:45Z</time>
      </trkpt>
      <trkpt lat="43.53885" lon="1.37396">
        <ele>157</ele>
        <time>2022-06-02T19:21:03Z</time>
      </trkpt>
      <trkpt lat="43.53917" lon="1.37321">
        <ele>160</ele>
        <time>2022-06-02T19:21:18Z</time>
      </trkpt>
      <trkpt lat="43.53927" lon="1.37259">
        <ele>162</ele>
        <time>2022-06-02T19:21:28Z</time>
      </trkpt>
      <trkpt lat="43.53924" lon="1.37194">
        <ele>163</ele>
        <time>2022-06-02T19:21:39Z</time>
      </trkpt>
      <trkpt lat="43.53859" lon="1.37075">
        <ele>166</ele>
        <time>2022-06-02T19:22:05Z</time>
      </trkpt>
      <trkpt lat="43.53801" lon="1.36986">
        <ele>165</ele>
        <time>2022-06-02T19:22:25Z</time>
      </trkpt>
      <trkpt lat="43.53798" lon="1.36978">
        <ele>165</ele>
        <time>2022-06-02T19:22:26Z</time>
      </trkpt>
      <trkpt lat="43.53806" lon="1.36958">
        <ele>165</ele>
        <time>2022-06-02T19:22:30Z</time>
      </trkpt>
      <trkpt lat="43.53803" lon="1.3694">
        <ele>165</ele>
        <time>2022-06-02T19:22:33Z</time>
      </trkpt>
      <trkpt lat="43.53714" lon="1.36778">
        <ele>163</ele>
        <time>2022-06-02T19:23:08Z</time>
      </trkpt>
      <trkpt lat="43.53648" lon="1.36629">
        <ele>164</ele>
        <time>2022-06-02T19:23:37Z</time>
      </trkpt>
      <trkpt lat="43.53648" lon="1.36574">
        <ele>163</ele>
        <time>2022-06-02T19:23:47Z</time>
      </trkpt>
      <trkpt lat="43.53655" lon="1.36496">
        <ele>165</ele>
        <time>2022-06-02T19:24:00Z</time>
      </trkpt>
      <trkpt lat="43.53643" lon="1.36478">
        <ele>164</ele>
        <time>2022-06-02T19:24:04Z</time>
      </trkpt>
      <trkpt lat="43.53648" lon="1.36431">
        <ele>164</ele>
        <time>2022-06-02T19:24:12Z</time>
      </trkpt>
      <trkpt lat="43.53643" lon="1.3632">
        <ele>165</ele>
        <time>2022-06-02T19:24:31Z</time>
      </trkpt>
      <trkpt lat="43.53655" lon="1.36231">
        <ele>165</ele>
        <time>2022-06-02T19:24:46Z</time>
      </trkpt>
      <trkpt lat="43.53658" lon="1.36156">
        <ele>166</ele>
        <time>2022-06-02T19:24:59Z</time>
      </trkpt>
      <trkpt lat="43.53679" lon="1.35965">
        <ele>168</ele>
        <time>2022-06-02T19:25:32Z</time>
      </trkpt>
      <trkpt lat="43.53708" lon="1.35874">
        <ele>167</ele>
        <time>2022-06-02T19:25:49Z</time>
      </trkpt>
      <trkpt lat="43.53756" lon="1.35798">
        <ele>165</ele>
        <time>2022-06-02T19:26:06Z</time>
      </trkpt>
      <trkpt lat="43.53789" lon="1.35763">
        <ele>165</ele>
        <time>2022-06-02T19:26:15Z</time>
      </trkpt>
      <trkpt lat="43.53847" lon="1.35734">
        <ele>166</ele>
        <time>2022-06-02T19:26:30Z</time>
      </trkpt>
      <trkpt lat="43.53885" lon="1.35704">
        <ele>164</ele>
        <time>2022-06-02T19:26:40Z</time>
      </trkpt>
      <trkpt lat="43.53916" lon="1.35688">
        <ele>163</ele>
        <time>2022-06-02T19:26:48Z</time>
      </trkpt>
      <trkpt lat="43.53939" lon="1.35667">
        <ele>162</ele>
        <time>2022-06-02T19:26:54Z</time>
      </trkpt>
      <trkpt lat="43.53955" lon="1.35626">
        <ele>162</ele>
        <time>2022-06-02T19:27:02Z</time>
      </trkpt>
      <trkpt lat="43.53995" lon="1.3555">
        <ele>162</ele>
        <time>2022-06-02T19:27:18Z</time>
      </trkpt>
      <trkpt lat="43.54008" lon="1.35513">
        <ele>162</ele>
        <time>2022-06-02T19:27:25Z</time>
      </trkpt>
      <trkpt lat="43.54053" lon="1.35419">
        <ele>165</ele>
        <time>2022-06-02T19:27:44Z</time>
      </trkpt>
      <trkpt lat="43.54064" lon="1.35351">
        <ele>167</ele>
        <time>2022-06-02T19:27:56Z</time>
      </trkpt>
      <trkpt lat="43.54065" lon="1.35318">
        <ele>167</ele>
        <time>2022-06-02T19:28:01Z</time>
      </trkpt>
      <trkpt lat="43.5403" lon="1.35154">
        <ele>166</ele>
        <time>2022-06-02T19:28:30Z</time>
      </trkpt>
      <trkpt lat="43.54032" lon="1.35124">
        <ele>166</ele>
        <time>2022-06-02T19:28:35Z</time>
      </trkpt>
      <trkpt lat="43.54013" lon="1.34991">
        <ele>166</ele>
        <time>2022-06-02T19:28:58Z</time>
      </trkpt>
      <trkpt lat="43.54015" lon="1.34987">
        <ele>166</ele>
        <time>2022-06-02T19:28:59Z</time>
      </trkpt>
      <trkpt lat="43.54048" lon="1.34973">
        <ele>166</ele>
        <time>2022-06-02T19:29:07Z</time>
      </trkpt>
      <trkpt lat="43.54063" lon="1.34959">
        <ele>166</ele>
        <time>2022-06-02T19:29:12Z</time>
      </trkpt>
      <trkpt lat="43.54214" lon="1.34755">
        <ele>165</ele>
        <time>2022-06-02T19:30:01Z</time>
      </trkpt>
      <trkpt lat="43.54211" lon="1.34743">
        <ele>165</ele>
        <time>2022-06-02T19:30:03Z</time>
      </trkpt>
      <trkpt lat="43.54196" lon="1.34735">
        <ele>165</ele>
        <time>2022-06-02T19:30:07Z</time>
      </trkpt>
      <trkpt lat="43.54191" lon="1.34727">
        <ele>165</ele>
        <time>2022-06-02T19:30:09Z</time>
      </trkpt>
      <trkpt lat="43.5419" lon="1.34716">
        <ele>166</ele>
        <time>2022-06-02T19:30:10Z</time>
      </trkpt>
      <trkpt lat="43.54203" lon="1.34702">
        <ele>166</ele>
        <time>2022-06-02T19:30:14Z</time>
      </trkpt>
      <trkpt lat="43.5431" lon="1.34671">
        <ele>166</ele>
        <time>2022-06-02T19:30:40Z</time>
      </trkpt>
      <trkpt lat="43.54345" lon="1.34667">
        <ele>167</ele>
        <time>2022-06-02T19:30:48Z</time>
      </trkpt>
      <trkpt lat="43.54393" lon="1.34643">
        <ele>166</ele>
        <time>2022-06-02T19:31:00Z</time>
      </trkpt>
      <trkpt lat="43.54408" lon="1.3463">
        <ele>166</ele>
        <time>2022-06-02T19:31:04Z</time>
      </trkpt>
      <trkpt lat="43.54419" lon="1.346">
        <ele>167</ele>
        <time>2022-06-02T19:31:10Z</time>
      </trkpt>
      <trkpt lat="43.54445" lon="1.34583">
        <ele>166</ele>
        <time>2022-06-02T19:31:17Z</time>
      </trkpt>
      <trkpt lat="43.54454" lon="1.34568">
        <ele>166</ele>
        <time>2022-06-02T19:31:20Z</time>
      </trkpt>
      <trkpt lat="43.54491" lon="1.34533">
        <ele>165</ele>
        <time>2022-06-02T19:31:30Z</time>
      </trkpt>
      <trkpt lat="43.54516" lon="1.345">
        <ele>165</ele>
        <time>2022-06-02T19:31:38Z</time>
      </trkpt>
      <trkpt lat="43.5457" lon="1.34409">
        <ele>167</ele>
        <time>2022-06-02T19:31:58Z</time>
      </trkpt>
      <trkpt lat="43.54593" lon="1.34348">
        <ele>167</ele>
        <time>2022-06-02T19:32:10Z</time>
      </trkpt>
      <trkpt lat="43.54646" lon="1.34246">
        <ele>165</ele>
        <time>2022-06-02T19:32:31Z</time>
      </trkpt>
      <trkpt lat="43.54697" lon="1.34177">
        <ele>165</ele>
        <time>2022-06-02T19:32:48Z</time>
      </trkpt>
      <trkpt lat="43.54746" lon="1.34092">
        <ele>166</ele>
        <time>2022-06-02T19:33:06Z</time>
      </trkpt>
      <trkpt lat="43.54802" lon="1.33944">
        <ele>166</ele>
        <time>2022-06-02T19:33:35Z</time>
      </trkpt>
      <trkpt lat="43.54819" lon="1.33911">
        <ele>166</ele>
        <time>2022-06-02T19:33:41Z</time>
      </trkpt>
      <trkpt lat="43.54858" lon="1.33802">
        <ele>168</ele>
        <time>2022-06-02T19:34:02Z</time>
      </trkpt>
      <trkpt lat="43.54865" lon="1.33772">
        <ele>168</ele>
        <time>2022-06-02T19:34:07Z</time>
      </trkpt>
      <trkpt lat="43.54861" lon="1.33733">
        <ele>168</ele>
        <time>2022-06-02T19:34:14Z</time>
      </trkpt>
      <trkpt lat="43.54864" lon="1.33719">
        <ele>168</ele>
        <time>2022-06-02T19:34:16Z</time>
      </trkpt>
      <trkpt lat="43.5491" lon="1.33681">
        <ele>168</ele>
        <time>2022-06-02T19:34:29Z</time>
      </trkpt>
      <trkpt lat="43.54962" lon="1.33653">
        <ele>165</ele>
        <time>2022-06-02T19:34:42Z</time>
      </trkpt>
      <trkpt lat="43.55046" lon="1.33623">
        <ele>165</ele>
        <time>2022-06-02T19:35:02Z</time>
      </trkpt>
      <trkpt lat="43.5508" lon="1.33604">
        <ele>166</ele>
        <time>2022-06-02T19:35:11Z</time>
      </trkpt>
      <trkpt lat="43.55132" lon="1.33586">
        <ele>165</ele>
        <time>2022-06-02T19:35:23Z</time>
      </trkpt>
      <trkpt lat="43.55205" lon="1.33541">
        <ele>165</ele>
        <time>2022-06-02T19:35:42Z</time>
      </trkpt>
      <trkpt lat="43.55268" lon="1.33493">
        <ele>167</ele>
        <time>2022-06-02T19:35:59Z</time>
      </trkpt>
      <trkpt lat="43.55357" lon="1.33408">
        <ele>168</ele>
        <time>2022-06-02T19:36:24Z</time>
      </trkpt>
      <trkpt lat="43.55387" lon="1.33384">
        <ele>168</ele>
        <time>2022-06-02T19:36:32Z</time>
      </trkpt>
      <trkpt lat="43.55517" lon="1.33293">
        <ele>166</ele>
        <time>2022-06-02T19:37:06Z</time>
      </trkpt>
      <trkpt lat="43.55534" lon="1.33287">
        <ele>165</ele>
        <time>2022-06-02T19:37:10Z</time>
      </trkpt>
      <trkpt lat="43.55546" lon="1.33277">
        <ele>165</ele>
        <time>2022-06-02T19:37:14Z</time>
      </trkpt>
      <trkpt lat="43.55557" lon="1.33255">
        <ele>165</ele>
        <time>2022-06-02T19:37:18Z</time>
      </trkpt>
      <trkpt lat="43.5557" lon="1.33256">
        <ele>165</ele>
        <time>2022-06-02T19:37:21Z</time>
      </trkpt>
      <trkpt lat="43.55599" lon="1.3324">
        <ele>165</ele>
        <time>2022-06-02T19:37:28Z</time>
      </trkpt>
      <trkpt lat="43.55624" lon="1.33215">
        <ele>165</ele>
        <time>2022-06-02T19:37:36Z</time>
      </trkpt>
      <trkpt lat="43.5564" lon="1.33187">
        <ele>165</ele>
        <time>2022-06-02T19:37:42Z</time>
      </trkpt>
      <trkpt lat="43.55642" lon="1.33177">
        <ele>165</ele>
        <time>2022-06-02T19:37:43Z</time>
      </trkpt>
      <trkpt lat="43.55638" lon="1.33172">
        <ele>165</ele>
        <time>2022-06-02T19:37:45Z</time>
      </trkpt>
      <trkpt lat="43.55553" lon="1.33171">
        <ele>164</ele>
        <time>2022-06-02T19:38:05Z</time>
      </trkpt>
      <trkpt lat="43.55543" lon="1.33165">
        <ele>164</ele>
        <time>2022-06-02T19:38:07Z</time>
      </trkpt>
      <trkpt lat="43.55539" lon="1.33132">
        <ele>164</ele>
        <time>2022-06-02T19:38:13Z</time>
      </trkpt>
      <trkpt lat="43.55525" lon="1.3312">
        <ele>164</ele>
        <time>2022-06-02T19:38:17Z</time>
      </trkpt>
      <trkpt lat="43.55517" lon="1.33125">
        <ele>164</ele>
        <time>2022-06-02T19:38:19Z</time>
      </trkpt>
      <trkpt lat="43.5551" lon="1.3312">
        <ele>164</ele>
        <time>2022-06-02T19:38:20Z</time>
      </trkpt>
      <trkpt lat="43.55513" lon="1.33122">
        <ele>164</ele>
        <time>2022-06-02T19:38:21Z</time>
      </trkpt>
    </trkseg>
  </trk>
</gpx>